<?xml version="1.0" encoding="UTF-8"?>
<gpx version="1.1" creator="https://www.youtrack.es" xsi:schemaLocation="http://www.topografix.com/GPX/1/1 http://www.topografix.com/GPX/1/1/gpx.xsd http://www.garmin.com/xmlschemas/GpxExtensions/v3 http://www.garmin.com/xmlschemas/GpxExtensionsv3.xsd http://www.garmin.com/xmlschemas/TrackPointExtension/v1 http://www.garmin.com/xmlschemas/TrackPointExtensionv1.xsd" xmlns:gpxtpx="http://www.garmin.com/xmlschemas/TrackPointExtension/v1" xmlns:gpxx="http://www.garmin.com/xmlschemas/GpxExtensions/v3" xmlns:xsi="http://www.w3.org/2001/XMLSchema-instance">
  <metadata>
    <link href="https://www.youtrack.es">
      <text>YouTrack.es</text>
    </link>
    <time>2026-05-08T11:02:37Z</time>
  </metadata>
  <trk>
    <src>https://www.youtrack.es</src>
    <link href="https://www.youtrack.es/ruta/30287-infernal-running">
      <text>YouTrack.es</text>
    </link>
    <trkseg>
      <trkpt lat="37.64799962751567363739013671875" lon="-5.52521444857120513916015625">
        <ele>35.799999237060546875</ele>
        <time>2022-03-20T09:52:43.000Z</time>
      </trkpt>
      <trkpt lat="37.648003064095973968505859375" lon="-5.5252142809331417083740234375">
        <ele>35.59999847412109375</ele>
        <time>2022-03-20T09:52:51.000Z</time>
      </trkpt>
      <trkpt lat="37.6480032317340373992919921875" lon="-5.52521436475217342376708984375">
        <ele>35.59999847412109375</ele>
        <time>2022-03-20T09:53:02.000Z</time>
      </trkpt>
      <trkpt lat="37.64799711294472217559814453125" lon="-5.52521470002830028533935546875">
        <ele>35.59999847412109375</ele>
        <time>2022-03-20T09:53:10.000Z</time>
      </trkpt>
      <trkpt lat="37.6479777507483959197998046875" lon="-5.52522174082696437835693359375">
        <ele>35.59999847412109375</ele>
        <time>2022-03-20T09:53:32.000Z</time>
      </trkpt>
      <trkpt lat="37.64797733165323734283447265625" lon="-5.52522475831210613250732421875">
        <ele>35.59999847412109375</ele>
        <time>2022-03-20T09:53:39.000Z</time>
      </trkpt>
      <trkpt lat="37.647976577281951904296875" lon="-5.52522785961627960205078125">
        <ele>35.59999847412109375</ele>
        <time>2022-03-20T09:53:50.000Z</time>
      </trkpt>
      <trkpt lat="37.6479790918529033660888671875" lon="-5.52522710524499416351318359375">
        <ele>35.59999847412109375</ele>
        <time>2022-03-20T09:54:10.000Z</time>
      </trkpt>
      <trkpt lat="37.647979259490966796875" lon="-5.525226853787899017333984375">
        <ele>35.59999847412109375</ele>
        <time>2022-03-20T09:54:12.000Z</time>
      </trkpt>
      <trkpt lat="37.64797934330999851226806640625" lon="-5.5252266861498355865478515625">
        <ele>35.59999847412109375</ele>
        <time>2022-03-20T09:54:14.000Z</time>
      </trkpt>
      <trkpt lat="37.64797951094806194305419921875" lon="-5.52522626705467700958251953125">
        <ele>35.59999847412109375</ele>
        <time>2022-03-20T09:54:17.000Z</time>
      </trkpt>
      <trkpt lat="37.647979259490966796875" lon="-5.52522542886435985565185546875">
        <ele>35.59999847412109375</ele>
        <time>2022-03-20T09:54:25.000Z</time>
      </trkpt>
      <trkpt lat="37.647979259490966796875" lon="-5.52522475831210613250732421875">
        <ele>35.59999847412109375</ele>
        <time>2022-03-20T09:54:44.000Z</time>
      </trkpt>
      <trkpt lat="37.64797934330999851226806640625" lon="-5.52522492595016956329345703125">
        <ele>35.59999847412109375</ele>
        <time>2022-03-20T09:54:53.000Z</time>
      </trkpt>
      <trkpt lat="37.647979259490966796875" lon="-5.525224842131137847900390625">
        <ele>35.59999847412109375</ele>
        <time>2022-03-20T09:54:58.000Z</time>
      </trkpt>
      <trkpt lat="37.647979594767093658447265625" lon="-5.52522459067404270172119140625">
        <ele>35.59999847412109375</ele>
        <time>2022-03-20T09:55:23.000Z</time>
      </trkpt>
      <trkpt lat="37.6479797624051570892333984375" lon="-5.52522442303597927093505859375">
        <ele>35.59999847412109375</ele>
        <time>2022-03-20T09:55:36.000Z</time>
      </trkpt>
      <trkpt lat="37.64797984622418880462646484375" lon="-5.525224506855010986328125">
        <ele>35.59999847412109375</ele>
        <time>2022-03-20T09:55:42.000Z</time>
      </trkpt>
      <trkpt lat="37.64797993004322052001953125" lon="-5.52522475831210613250732421875">
        <ele>35.59999847412109375</ele>
        <time>2022-03-20T09:55:45.000Z</time>
      </trkpt>
      <trkpt lat="37.64798001386225223541259765625" lon="-5.525224842131137847900390625">
        <ele>35.59999847412109375</ele>
        <time>2022-03-20T09:55:52.000Z</time>
      </trkpt>
      <trkpt lat="37.64798018150031566619873046875" lon="-5.52522459067404270172119140625">
        <ele>35.59999847412109375</ele>
        <time>2022-03-20T09:56:10.000Z</time>
      </trkpt>
      <trkpt lat="37.64798018150031566619873046875" lon="-5.52522442303597927093505859375">
        <ele>35.59999847412109375</ele>
        <time>2022-03-20T09:56:23.000Z</time>
      </trkpt>
      <trkpt lat="37.64798034913837909698486328125" lon="-5.52522425539791584014892578125">
        <ele>35.59999847412109375</ele>
        <time>2022-03-20T09:56:33.000Z</time>
      </trkpt>
      <trkpt lat="37.64798051677644252777099609375" lon="-5.5252243392169475555419921875">
        <ele>35.59999847412109375</ele>
        <time>2022-03-20T09:56:37.000Z</time>
      </trkpt>
      <trkpt lat="37.64798051677644252777099609375" lon="-5.52522425539791584014892578125">
        <ele>35.59999847412109375</ele>
        <time>2022-03-20T09:56:39.000Z</time>
      </trkpt>
      <trkpt lat="37.6479807682335376739501953125" lon="-5.5252240039408206939697265625">
        <ele>35.59999847412109375</ele>
        <time>2022-03-20T09:56:58.000Z</time>
      </trkpt>
      <trkpt lat="37.6479807682335376739501953125" lon="-5.5252240039408206939697265625">
        <ele>35.59999847412109375</ele>
        <time>2022-03-20T09:56:59.000Z</time>
      </trkpt>
      <trkpt lat="37.647980935871601104736328125" lon="-5.52522392012178897857666015625">
        <ele>35.59999847412109375</ele>
        <time>2022-03-20T09:57:05.000Z</time>
      </trkpt>
      <trkpt lat="37.64798085205256938934326171875" lon="-5.52522392012178897857666015625">
        <ele>35.59999847412109375</ele>
        <time>2022-03-20T09:57:07.000Z</time>
      </trkpt>
      <trkpt lat="37.64798085205256938934326171875" lon="-5.52522383630275726318359375">
        <ele>35.59999847412109375</ele>
        <time>2022-03-20T09:57:09.000Z</time>
      </trkpt>
      <trkpt lat="37.647980935871601104736328125" lon="-5.5252236686646938323974609375">
        <ele>35.59999847412109375</ele>
        <time>2022-03-20T09:57:11.000Z</time>
      </trkpt>
      <trkpt lat="37.64798127114772796630859375" lon="-5.5252233333885669708251953125">
        <ele>35.59999847412109375</ele>
        <time>2022-03-20T09:57:22.000Z</time>
      </trkpt>
      <trkpt lat="37.64798118732869625091552734375" lon="-5.52522324956953525543212890625">
        <ele>35.59999847412109375</ele>
        <time>2022-03-20T09:57:30.000Z</time>
      </trkpt>
      <trkpt lat="37.64798353426158428192138671875" lon="-5.5252240039408206939697265625">
        <ele>35.59999847412109375</ele>
        <time>2022-03-20T09:57:33.000Z</time>
      </trkpt>
      <trkpt lat="37.64799979515373706817626953125" lon="-5.52523800171911716461181640625">
        <ele>35.59999847412109375</ele>
        <time>2022-03-20T09:57:36.000Z</time>
      </trkpt>
      <trkpt lat="37.648003734648227691650390625" lon="-5.5252451263368129730224609375">
        <ele>35.59999847412109375</ele>
        <time>2022-03-20T09:57:38.000Z</time>
      </trkpt>
      <trkpt lat="37.648010440170764923095703125" lon="-5.52524336613714694976806640625">
        <ele>35.59999847412109375</ele>
        <time>2022-03-20T09:57:41.000Z</time>
      </trkpt>
      <trkpt lat="37.64801681041717529296875" lon="-5.52523632533848285675048828125">
        <ele>35.59999847412109375</ele>
        <time>2022-03-20T09:57:43.000Z</time>
      </trkpt>
      <trkpt lat="37.64801706187427043914794921875" lon="-5.52523582242429256439208984375">
        <ele>35.59999847412109375</ele>
        <time>2022-03-20T09:57:44.000Z</time>
      </trkpt>
      <trkpt lat="37.648007757961750030517578125" lon="-5.5252327211201190948486328125">
        <ele>35.59999847412109375</ele>
        <time>2022-03-20T09:57:54.000Z</time>
      </trkpt>
      <trkpt lat="37.64800063334405422210693359375" lon="-5.52522526122629642486572265625">
        <ele>35.59999847412109375</ele>
        <time>2022-03-20T09:58:24.000Z</time>
      </trkpt>
      <trkpt lat="37.64799535274505615234375" lon="-5.5252276919782161712646484375">
        <ele>36.40000152587890625</ele>
        <time>2022-03-20T09:58:37.000Z</time>
      </trkpt>
      <trkpt lat="37.6480173133313655853271484375" lon="-5.52526398561894893646240234375">
        <ele>36.200000762939453125</ele>
        <time>2022-03-20T09:58:42.000Z</time>
      </trkpt>
      <trkpt lat="37.648054026067256927490234375" lon="-5.52533003501594066619873046875">
        <ele>34.59999847412109375</ele>
        <time>2022-03-20T09:58:48.000Z</time>
      </trkpt>
      <trkpt lat="37.6480557024478912353515625" lon="-5.525336153805255889892578125">
        <ele>34.40000152587890625</ele>
        <time>2022-03-20T09:58:50.000Z</time>
      </trkpt>
      <trkpt lat="37.6480622403323650360107421875" lon="-5.52534009329974651336669921875">
        <ele>34.40000152587890625</ele>
        <time>2022-03-20T09:58:55.000Z</time>
      </trkpt>
      <trkpt lat="37.64806534163653850555419921875" lon="-5.52534042857587337493896484375">
        <ele>34.59999847412109375</ele>
        <time>2022-03-20T09:58:57.000Z</time>
      </trkpt>
      <trkpt lat="37.64804757200181484222412109375" lon="-5.5253438651561737060546875">
        <ele>35</ele>
        <time>2022-03-20T09:59:06.000Z</time>
      </trkpt>
      <trkpt lat="37.6480476558208465576171875" lon="-5.52534260787069797515869140625">
        <ele>34.799999237060546875</ele>
        <time>2022-03-20T09:59:10.000Z</time>
      </trkpt>
      <trkpt lat="37.64803768135607242584228515625" lon="-5.525326766073703765869140625">
        <ele>34.59999847412109375</ele>
        <time>2022-03-20T09:59:14.000Z</time>
      </trkpt>
      <trkpt lat="37.64803952537477016448974609375" lon="-5.52532374858856201171875">
        <ele>35</ele>
        <time>2022-03-20T09:59:17.000Z</time>
      </trkpt>
      <trkpt lat="37.6480374298989772796630859375" lon="-5.52532282657921314239501953125">
        <ele>35</ele>
        <time>2022-03-20T09:59:18.000Z</time>
      </trkpt>
      <trkpt lat="37.6480773277580738067626953125" lon="-5.525373704731464385986328125">
        <ele>34.40000152587890625</ele>
        <time>2022-03-20T09:59:23.000Z</time>
      </trkpt>
      <trkpt lat="37.64810440130531787872314453125" lon="-5.5254137702286243438720703125">
        <ele>34.40000152587890625</ele>
        <time>2022-03-20T09:59:24.000Z</time>
      </trkpt>
      <trkpt lat="37.6482335664331912994384765625" lon="-5.52553505636751651763916015625">
        <ele>35.200000762939453125</ele>
        <time>2022-03-20T09:59:28.000Z</time>
      </trkpt>
      <trkpt lat="37.64836792834103107452392578125" lon="-5.52563915960490703582763671875">
        <ele>35.40000152587890625</ele>
        <time>2022-03-20T09:59:32.000Z</time>
      </trkpt>
      <trkpt lat="37.648468427360057830810546875" lon="-5.52571057341992855072021484375">
        <ele>35.59999847412109375</ele>
        <time>2022-03-20T09:59:35.000Z</time>
      </trkpt>
      <trkpt lat="37.64851930551230907440185546875" lon="-5.52577209658920764923095703125">
        <ele>35.799999237060546875</ele>
        <time>2022-03-20T09:59:37.000Z</time>
      </trkpt>
      <trkpt lat="37.64858250506222248077392578125" lon="-5.52588156424462795257568359375">
        <ele>36</ele>
        <time>2022-03-20T09:59:40.000Z</time>
      </trkpt>
      <trkpt lat="37.648599855601787567138671875" lon="-5.525918863713741302490234375">
        <ele>36</ele>
        <time>2022-03-20T09:59:41.000Z</time>
      </trkpt>
      <trkpt lat="37.64865324832499027252197265625" lon="-5.5260279960930347442626953125">
        <ele>35.40000152587890625</ele>
        <time>2022-03-20T09:59:44.000Z</time>
      </trkpt>
      <trkpt lat="37.64872315339744091033935546875" lon="-5.5261684767901897430419921875">
        <ele>35.200000762939453125</ele>
        <time>2022-03-20T09:59:48.000Z</time>
      </trkpt>
      <trkpt lat="37.64873899519443511962890625" lon="-5.5262016691267490386962890625">
        <ele>35.59999847412109375</ele>
        <time>2022-03-20T09:59:49.000Z</time>
      </trkpt>
      <trkpt lat="37.64883697964251041412353515625" lon="-5.5264142341911792755126953125">
        <ele>36</ele>
        <time>2022-03-20T09:59:55.000Z</time>
      </trkpt>
      <trkpt lat="37.64887972734868526458740234375" lon="-5.52651657722890377044677734375">
        <ele>36</ele>
        <time>2022-03-20T09:59:58.000Z</time>
      </trkpt>
      <trkpt lat="37.6489892788231372833251953125" lon="-5.5267421342432498931884765625">
        <ele>36</ele>
        <time>2022-03-20T10:00:05.000Z</time>
      </trkpt>
      <trkpt lat="37.649039067327976226806640625" lon="-5.52683710120618343353271484375">
        <ele>35.799999237060546875</ele>
        <time>2022-03-20T10:00:08.000Z</time>
      </trkpt>
      <trkpt lat="37.64913420192897319793701171875" lon="-5.527033992111682891845703125">
        <ele>36.200000762939453125</ele>
        <time>2022-03-20T10:00:14.000Z</time>
      </trkpt>
      <trkpt lat="37.6491783745586872100830078125" lon="-5.52713063545525074005126953125">
        <ele>36.200000762939453125</ele>
        <time>2022-03-20T10:00:17.000Z</time>
      </trkpt>
      <trkpt lat="37.64925188384950160980224609375" lon="-5.5273447930812835693359375">
        <ele>36</ele>
        <time>2022-03-20T10:00:23.000Z</time>
      </trkpt>
      <trkpt lat="37.6492779515683650970458984375" lon="-5.5274475552141666412353515625">
        <ele>36</ele>
        <time>2022-03-20T10:00:26.000Z</time>
      </trkpt>
      <trkpt lat="37.64926412142813205718994140625" lon="-5.52764880470931529998779296875">
        <ele>35.799999237060546875</ele>
        <time>2022-03-20T10:00:32.000Z</time>
      </trkpt>
      <trkpt lat="37.64915607869625091552734375" lon="-5.52770881913602352142333984375">
        <ele>35.59999847412109375</ele>
        <time>2022-03-20T10:00:36.000Z</time>
      </trkpt>
      <trkpt lat="37.64897595159709453582763671875" lon="-5.5277975834906101226806640625">
        <ele>35.40000152587890625</ele>
        <time>2022-03-20T10:00:42.000Z</time>
      </trkpt>
      <trkpt lat="37.6489497162401676177978515625" lon="-5.52780772559344768524169921875">
        <ele>35.40000152587890625</ele>
        <time>2022-03-20T10:00:43.000Z</time>
      </trkpt>
      <trkpt lat="37.64877327717840671539306640625" lon="-5.52787394262850284576416015625">
        <ele>35.59999847412109375</ele>
        <time>2022-03-20T10:00:49.000Z</time>
      </trkpt>
      <trkpt lat="37.64871460385620594024658203125" lon="-5.52789707668125629425048828125">
        <ele>35.799999237060546875</ele>
        <time>2022-03-20T10:00:51.000Z</time>
      </trkpt>
      <trkpt lat="37.6485701836645603179931640625" lon="-5.52796279080212116241455078125">
        <ele>35.59999847412109375</ele>
        <time>2022-03-20T10:00:56.000Z</time>
      </trkpt>
      <trkpt lat="37.6484204828739166259765625" lon="-5.5280192010104656219482421875">
        <ele>35</ele>
        <time>2022-03-20T10:01:01.000Z</time>
      </trkpt>
      <trkpt lat="37.6482798345386981964111328125" lon="-5.5281342007219791412353515625">
        <ele>35.200000762939453125</ele>
        <time>2022-03-20T10:01:06.000Z</time>
      </trkpt>
      <trkpt lat="37.6482496596872806549072265625" lon="-5.52828700281679630279541015625">
        <ele>36.200000762939453125</ele>
        <time>2022-03-20T10:01:10.000Z</time>
      </trkpt>
      <trkpt lat="37.64829886145889759063720703125" lon="-5.5285197682678699493408203125">
        <ele>36.40000152587890625</ele>
        <time>2022-03-20T10:01:16.000Z</time>
      </trkpt>
      <trkpt lat="37.648274637758731842041015625" lon="-5.52869101054966449737548828125">
        <ele>35.799999237060546875</ele>
        <time>2022-03-20T10:01:21.000Z</time>
      </trkpt>
      <trkpt lat="37.648176066577434539794921875" lon="-5.52889469079673290252685546875">
        <ele>36.40000152587890625</ele>
        <time>2022-03-20T10:01:28.000Z</time>
      </trkpt>
      <trkpt lat="37.6481229253113269805908203125" lon="-5.52897364832460880279541015625">
        <ele>36.40000152587890625</ele>
        <time>2022-03-20T10:01:31.000Z</time>
      </trkpt>
      <trkpt lat="37.6480246894061565399169921875" lon="-5.52910574711859226226806640625">
        <ele>35.40000152587890625</ele>
        <time>2022-03-20T10:01:37.000Z</time>
      </trkpt>
      <trkpt lat="37.64796677045524120330810546875" lon="-5.52918369881808757781982421875">
        <ele>34.59999847412109375</ele>
        <time>2022-03-20T10:01:41.000Z</time>
      </trkpt>
      <trkpt lat="37.64794313348829746246337890625" lon="-5.52920113317668437957763671875">
        <ele>34.59999847412109375</ele>
        <time>2022-03-20T10:01:43.000Z</time>
      </trkpt>
      <trkpt lat="37.6478999666869640350341796875" lon="-5.5292426235973834991455078125">
        <ele>35.799999237060546875</ele>
        <time>2022-03-20T10:01:47.000Z</time>
      </trkpt>
      <trkpt lat="37.64788865111768245697021484375" lon="-5.52927665412425994873046875">
        <ele>37.200000762939453125</ele>
        <time>2022-03-20T10:01:49.000Z</time>
      </trkpt>
      <trkpt lat="37.647885717451572418212890625" lon="-5.52929433993995189666748046875">
        <ele>38.40000152587890625</ele>
        <time>2022-03-20T10:01:50.000Z</time>
      </trkpt>
      <trkpt lat="37.64789066277444362640380859375" lon="-5.52934178151190280914306640625">
        <ele>39.40000152587890625</ele>
        <time>2022-03-20T10:01:52.000Z</time>
      </trkpt>
      <trkpt lat="37.647911198437213897705078125" lon="-5.5294364131987094879150390625">
        <ele>40</ele>
        <time>2022-03-20T10:01:55.000Z</time>
      </trkpt>
      <trkpt lat="37.64792486093938350677490234375" lon="-5.5295001156628131866455078125">
        <ele>40.59999847412109375</ele>
        <time>2022-03-20T10:01:57.000Z</time>
      </trkpt>
      <trkpt lat="37.6479626633226871490478515625" lon="-5.5296228267252445220947265625">
        <ele>40.200000762939453125</ele>
        <time>2022-03-20T10:02:01.000Z</time>
      </trkpt>
      <trkpt lat="37.64803198166191577911376953125" lon="-5.52984737791121006011962890625">
        <ele>39.59999847412109375</ele>
        <time>2022-03-20T10:02:08.000Z</time>
      </trkpt>
      <trkpt lat="37.6480384357273578643798828125" lon="-5.52986715920269489288330078125">
        <ele>39.59999847412109375</ele>
        <time>2022-03-20T10:02:09.000Z</time>
      </trkpt>
      <trkpt lat="37.64804388396441936492919921875" lon="-5.5298741161823272705078125">
        <ele>41.200000762939453125</ele>
        <time>2022-03-20T10:02:12.000Z</time>
      </trkpt>
      <trkpt lat="37.64804690144956111907958984375" lon="-5.5298689194023609161376953125">
        <ele>41.59999847412109375</ele>
        <time>2022-03-20T10:02:13.000Z</time>
      </trkpt>
      <trkpt lat="37.64806936495006084442138671875" lon="-5.529909990727901458740234375">
        <ele>41.799999237060546875</ele>
        <time>2022-03-20T10:02:16.000Z</time>
      </trkpt>
      <trkpt lat="37.64808512292802333831787109375" lon="-5.5299829132854938507080078125">
        <ele>41</ele>
        <time>2022-03-20T10:02:18.000Z</time>
      </trkpt>
      <trkpt lat="37.64809551648795604705810546875" lon="-5.530054830014705657958984375">
        <ele>40.59999847412109375</ele>
        <time>2022-03-20T10:02:20.000Z</time>
      </trkpt>
      <trkpt lat="37.6481021381914615631103515625" lon="-5.53009095601737499237060546875">
        <ele>40.40000152587890625</ele>
        <time>2022-03-20T10:02:21.000Z</time>
      </trkpt>
      <trkpt lat="37.64817363582551479339599609375" lon="-5.53032137453556060791015625">
        <ele>40.200000762939453125</ele>
        <time>2022-03-20T10:02:28.000Z</time>
      </trkpt>
      <trkpt lat="37.6488400809466838836669921875" lon="-5.53165216930210590362548828125">
        <ele>42.200000762939453125</ele>
        <time>2022-03-20T10:03:12.000Z</time>
      </trkpt>
      <trkpt lat="37.64892876148223876953125" lon="-5.53181796334683895111083984375">
        <ele>42.200000762939453125</ele>
        <time>2022-03-20T10:03:17.000Z</time>
      </trkpt>
      <trkpt lat="37.64897025190293788909912109375" lon="-5.5319174565374851226806640625">
        <ele>41.799999237060546875</ele>
        <time>2022-03-20T10:03:20.000Z</time>
      </trkpt>
      <trkpt lat="37.649041749536991119384765625" lon="-5.5321340449154376983642578125">
        <ele>41.59999847412109375</ele>
        <time>2022-03-20T10:03:26.000Z</time>
      </trkpt>
      <trkpt lat="37.64905222691595554351806640625" lon="-5.5321709252893924713134765625">
        <ele>41.40000152587890625</ele>
        <time>2022-03-20T10:03:27.000Z</time>
      </trkpt>
      <trkpt lat="37.6491098105907440185546875" lon="-5.53238776512444019317626953125">
        <ele>40.59999847412109375</ele>
        <time>2022-03-20T10:03:33.000Z</time>
      </trkpt>
      <trkpt lat="37.6491098105907440185546875" lon="-5.53238776512444019317626953125">
        <ele>40.799999237060546875</ele>
        <time>2022-03-20T10:03:34.000Z</time>
      </trkpt>
      <trkpt lat="37.64916873537003993988037109375" lon="-5.5326356180012226104736328125">
        <ele>40.59999847412109375</ele>
        <time>2022-03-20T10:03:41.000Z</time>
      </trkpt>
      <trkpt lat="37.64920209534466266632080078125" lon="-5.53279126994311809539794921875">
        <ele>40.59999847412109375</ele>
        <time>2022-03-20T10:03:45.000Z</time>
      </trkpt>
      <trkpt lat="37.64923796989023685455322265625" lon="-5.53292823024094104766845703125">
        <ele>41</ele>
        <time>2022-03-20T10:03:49.000Z</time>
      </trkpt>
      <trkpt lat="37.64928054995834827423095703125" lon="-5.5331222712993621826171875">
        <ele>40.59999847412109375</ele>
        <time>2022-03-20T10:03:55.000Z</time>
      </trkpt>
      <trkpt lat="37.649271748960018157958984375" lon="-5.53313895128667354583740234375">
        <ele>40.40000152587890625</ele>
        <time>2022-03-20T10:03:56.000Z</time>
      </trkpt>
      <trkpt lat="37.6492504589259624481201171875" lon="-5.5331609956920146942138671875">
        <ele>39.799999237060546875</ele>
        <time>2022-03-20T10:03:59.000Z</time>
      </trkpt>
      <trkpt lat="37.64924350194633007049560546875" lon="-5.53316342644393444061279296875">
        <ele>39.59999847412109375</ele>
        <time>2022-03-20T10:04:00.000Z</time>
      </trkpt>
      <trkpt lat="37.64923461712896823883056640625" lon="-5.53316694684326648712158203125">
        <ele>39</ele>
        <time>2022-03-20T10:04:01.000Z</time>
      </trkpt>
      <trkpt lat="37.64922439120709896087646484375" lon="-5.5331700481474399566650390625">
        <ele>38.40000152587890625</ele>
        <time>2022-03-20T10:04:03.000Z</time>
      </trkpt>
      <trkpt lat="37.64919438399374485015869140625" lon="-5.533180274069309234619140625">
        <ele>37</ele>
        <time>2022-03-20T10:04:06.000Z</time>
      </trkpt>
      <trkpt lat="37.64918155968189239501953125" lon="-5.53319326601922512054443359375">
        <ele>36.200000762939453125</ele>
        <time>2022-03-20T10:04:07.000Z</time>
      </trkpt>
      <trkpt lat="37.64916814863681793212890625" lon="-5.5332102812826633453369140625">
        <ele>35.59999847412109375</ele>
        <time>2022-03-20T10:04:08.000Z</time>
      </trkpt>
      <trkpt lat="37.64912649057805538177490234375" lon="-5.53323333151638507843017578125">
        <ele>34.799999237060546875</ele>
        <time>2022-03-20T10:04:10.000Z</time>
      </trkpt>
      <trkpt lat="37.64909514226019382476806640625" lon="-5.5332424677908420562744140625">
        <ele>34</ele>
        <time>2022-03-20T10:04:11.000Z</time>
      </trkpt>
      <trkpt lat="37.64902289025485515594482421875" lon="-5.5332672782242298126220703125">
        <ele>32.799999237060546875</ele>
        <time>2022-03-20T10:04:13.000Z</time>
      </trkpt>
      <trkpt lat="37.64896589331328868865966796875" lon="-5.5332813598215579986572265625">
        <ele>31.6000003814697265625</ele>
        <time>2022-03-20T10:04:15.000Z</time>
      </trkpt>
      <trkpt lat="37.648904286324977874755859375" lon="-5.53329753689467906951904296875">
        <ele>30.6000003814697265625</ele>
        <time>2022-03-20T10:04:17.000Z</time>
      </trkpt>
      <trkpt lat="37.64887587167322635650634765625" lon="-5.53330935537815093994140625">
        <ele>30.200000762939453125</ele>
        <time>2022-03-20T10:04:18.000Z</time>
      </trkpt>
      <trkpt lat="37.6487247459590435028076171875" lon="-5.533301644027233123779296875">
        <ele>29.3999996185302734375</ele>
        <time>2022-03-20T10:04:23.000Z</time>
      </trkpt>
      <trkpt lat="37.64864101074635982513427734375" lon="-5.53327381610870361328125">
        <ele>29.6000003814697265625</ele>
        <time>2022-03-20T10:04:26.000Z</time>
      </trkpt>
      <trkpt lat="37.64859122224152088165283203125" lon="-5.533241964876651763916015625">
        <ele>28.799999237060546875</ele>
        <time>2022-03-20T10:04:28.000Z</time>
      </trkpt>
      <trkpt lat="37.64853908680379390716552734375" lon="-5.5331915058195590972900390625">
        <ele>28.6000003814697265625</ele>
        <time>2022-03-20T10:04:30.000Z</time>
      </trkpt>
      <trkpt lat="37.648405395448207855224609375" lon="-5.53303954191505908966064453125">
        <ele>29.200000762939453125</ele>
        <time>2022-03-20T10:04:36.000Z</time>
      </trkpt>
      <trkpt lat="37.64835066162049770355224609375" lon="-5.53295689634978771209716796875">
        <ele>29.200000762939453125</ele>
        <time>2022-03-20T10:04:39.000Z</time>
      </trkpt>
      <trkpt lat="37.6482848636806011199951171875" lon="-5.53290995769202709197998046875">
        <ele>28.799999237060546875</ele>
        <time>2022-03-20T10:04:42.000Z</time>
      </trkpt>
      <trkpt lat="37.648223005235195159912109375" lon="-5.53284575231373310089111328125">
        <ele>29.200000762939453125</ele>
        <time>2022-03-20T10:04:45.000Z</time>
      </trkpt>
      <trkpt lat="37.64817413873970508575439453125" lon="-5.532783977687358856201171875">
        <ele>29.200000762939453125</ele>
        <time>2022-03-20T10:04:48.000Z</time>
      </trkpt>
      <trkpt lat="37.64813507907092571258544921875" lon="-5.53275707177817821502685546875">
        <ele>29.200000762939453125</ele>
        <time>2022-03-20T10:04:50.000Z</time>
      </trkpt>
      <trkpt lat="37.64808881096541881561279296875" lon="-5.53272807039320468902587890625">
        <ele>29.6000003814697265625</ele>
        <time>2022-03-20T10:04:52.000Z</time>
      </trkpt>
      <trkpt lat="37.64807137660682201385498046875" lon="-5.5327140726149082183837890625">
        <ele>29.6000003814697265625</ele>
        <time>2022-03-20T10:04:53.000Z</time>
      </trkpt>
      <trkpt lat="37.64802753925323486328125" lon="-5.53267761133611202239990234375">
        <ele>30</ele>
        <time>2022-03-20T10:04:55.000Z</time>
      </trkpt>
      <trkpt lat="37.647978924214839935302734375" lon="-5.5326510407030582427978515625">
        <ele>30.200000762939453125</ele>
        <time>2022-03-20T10:04:57.000Z</time>
      </trkpt>
      <trkpt lat="37.6478419639170169830322265625" lon="-5.5325779505074024200439453125">
        <ele>29.6000003814697265625</ele>
        <time>2022-03-20T10:05:03.000Z</time>
      </trkpt>
      <trkpt lat="37.64768798835575580596923828125" lon="-5.53244677372276782989501953125">
        <ele>30.200000762939453125</ele>
        <time>2022-03-20T10:05:10.000Z</time>
      </trkpt>
      <trkpt lat="37.6476649381220340728759765625" lon="-5.53242112509906291961669921875">
        <ele>30.200000762939453125</ele>
        <time>2022-03-20T10:05:11.000Z</time>
      </trkpt>
      <trkpt lat="37.64759846962988376617431640625" lon="-5.53235826082527637481689453125">
        <ele>29.3999996185302734375</ele>
        <time>2022-03-20T10:05:14.000Z</time>
      </trkpt>
      <trkpt lat="37.64755387790501117706298828125" lon="-5.53231417201459407806396484375">
        <ele>28.799999237060546875</ele>
        <time>2022-03-20T10:05:16.000Z</time>
      </trkpt>
      <trkpt lat="37.64745480380952358245849609375" lon="-5.53222306072711944580078125">
        <ele>29.6000003814697265625</ele>
        <time>2022-03-20T10:05:20.000Z</time>
      </trkpt>
      <trkpt lat="37.64731633476912975311279296875" lon="-5.53207545541226863861083984375">
        <ele>29.200000762939453125</ele>
        <time>2022-03-20T10:05:27.000Z</time>
      </trkpt>
      <trkpt lat="37.647171579301357269287109375" lon="-5.53190429694950580596923828125">
        <ele>28.3999996185302734375</ele>
        <time>2022-03-20T10:05:34.000Z</time>
      </trkpt>
      <trkpt lat="37.647152803838253021240234375" lon="-5.5318849347531795501708984375">
        <ele>28.200000762939453125</ele>
        <time>2022-03-20T10:05:35.000Z</time>
      </trkpt>
      <trkpt lat="37.64703470282256603240966796875" lon="-5.531753003597259521484375">
        <ele>28</ele>
        <time>2022-03-20T10:05:41.000Z</time>
      </trkpt>
      <trkpt lat="37.64692783355712890625" lon="-5.5315406061708927154541015625">
        <ele>29</ele>
        <time>2022-03-20T10:05:48.000Z</time>
      </trkpt>
      <trkpt lat="37.64684669673442840576171875" lon="-5.53137137554585933685302734375">
        <ele>29.3999996185302734375</ele>
        <time>2022-03-20T10:05:54.000Z</time>
      </trkpt>
      <trkpt lat="37.64674334786832332611083984375" lon="-5.531185381114482879638671875">
        <ele>29</ele>
        <time>2022-03-20T10:06:01.000Z</time>
      </trkpt>
      <trkpt lat="37.6467345468699932098388671875" lon="-5.53112201392650604248046875">
        <ele>29</ele>
        <time>2022-03-20T10:06:03.000Z</time>
      </trkpt>
      <trkpt lat="37.646717615425586700439453125" lon="-5.5308817885816097259521484375">
        <ele>29.799999237060546875</ele>
        <time>2022-03-20T10:06:11.000Z</time>
      </trkpt>
      <trkpt lat="37.6466752029955387115478515625" lon="-5.53070099093019962310791015625">
        <ele>30</ele>
        <time>2022-03-20T10:06:17.000Z</time>
      </trkpt>
      <trkpt lat="37.64666908420622348785400390625" lon="-5.53064131177961826324462890625">
        <ele>30.200000762939453125</ele>
        <time>2022-03-20T10:06:19.000Z</time>
      </trkpt>
      <trkpt lat="37.64667931012809276580810546875" lon="-5.530540309846401214599609375">
        <ele>30.3999996185302734375</ele>
        <time>2022-03-20T10:06:23.000Z</time>
      </trkpt>
      <trkpt lat="37.6466824114322662353515625" lon="-5.5305052734911441802978515625">
        <ele>30.200000762939453125</ele>
        <time>2022-03-20T10:06:24.000Z</time>
      </trkpt>
      <trkpt lat="37.6466802321374416351318359375" lon="-5.53033671341836452484130859375">
        <ele>31</ele>
        <time>2022-03-20T10:06:30.000Z</time>
      </trkpt>
      <trkpt lat="37.646678052842617034912109375" lon="-5.53030838258564472198486328125">
        <ele>31</ele>
        <time>2022-03-20T10:06:31.000Z</time>
      </trkpt>
      <trkpt lat="37.6466839201748371124267578125" lon="-5.53025490604341030120849609375">
        <ele>31.200000762939453125</ele>
        <time>2022-03-20T10:06:33.000Z</time>
      </trkpt>
      <trkpt lat="37.6466959901154041290283203125" lon="-5.53019304759800434112548828125">
        <ele>31.200000762939453125</ele>
        <time>2022-03-20T10:06:35.000Z</time>
      </trkpt>
      <trkpt lat="37.646690793335437774658203125" lon="-5.5301089771091938018798828125">
        <ele>31.3999996185302734375</ele>
        <time>2022-03-20T10:06:38.000Z</time>
      </trkpt>
      <trkpt lat="37.64672557823359966278076171875" lon="-5.5300549976527690887451171875">
        <ele>31.6000003814697265625</ele>
        <time>2022-03-20T10:06:40.000Z</time>
      </trkpt>
      <trkpt lat="37.646774947643280029296875" lon="-5.52991309203207492828369140625">
        <ele>31</ele>
        <time>2022-03-20T10:06:45.000Z</time>
      </trkpt>
      <trkpt lat="37.6468418352305889129638671875" lon="-5.529712848365306854248046875">
        <ele>31.3999996185302734375</ele>
        <time>2022-03-20T10:06:52.000Z</time>
      </trkpt>
      <trkpt lat="37.64686320908367633819580078125" lon="-5.5296553485095500946044921875">
        <ele>31.3999996185302734375</ele>
        <time>2022-03-20T10:06:54.000Z</time>
      </trkpt>
      <trkpt lat="37.64690143056213855743408203125" lon="-5.52949391305446624755859375">
        <ele>31.6000003814697265625</ele>
        <time>2022-03-20T10:07:00.000Z</time>
      </trkpt>
      <trkpt lat="37.6468964852392673492431640625" lon="-5.52944370545446872711181640625">
        <ele>32.200000762939453125</ele>
        <time>2022-03-20T10:07:02.000Z</time>
      </trkpt>
      <trkpt lat="37.64688584022223949432373046875" lon="-5.529317222535610198974609375">
        <ele>32.200000762939453125</ele>
        <time>2022-03-20T10:07:07.000Z</time>
      </trkpt>
      <trkpt lat="37.64688449911773204803466796875" lon="-5.52927204407751560211181640625">
        <ele>31.6000003814697265625</ele>
        <time>2022-03-20T10:07:12.000Z</time>
      </trkpt>
      <trkpt lat="37.64688558876514434814453125" lon="-5.52926483564078807830810546875">
        <ele>31.200000762939453125</ele>
        <time>2022-03-20T10:07:16.000Z</time>
      </trkpt>
      <trkpt lat="37.64689371921122074127197265625" lon="-5.5292543582618236541748046875">
        <ele>31</ele>
        <time>2022-03-20T10:07:19.000Z</time>
      </trkpt>
      <trkpt lat="37.64689891599118709564208984375" lon="-5.5292545258998870849609375">
        <ele>30.799999237060546875</ele>
        <time>2022-03-20T10:07:23.000Z</time>
      </trkpt>
      <trkpt lat="37.6468971557915210723876953125" lon="-5.52924991585314273834228515625">
        <ele>30.799999237060546875</ele>
        <time>2022-03-20T10:07:24.000Z</time>
      </trkpt>
      <trkpt lat="37.6468954794108867645263671875" lon="-5.529247485101222991943359375">
        <ele>30.799999237060546875</ele>
        <time>2022-03-20T10:07:25.000Z</time>
      </trkpt>
      <trkpt lat="37.64689472503960132598876953125" lon="-5.5292265303432941436767578125">
        <ele>30.799999237060546875</ele>
        <time>2022-03-20T10:07:28.000Z</time>
      </trkpt>
      <trkpt lat="37.6468860916793346405029296875" lon="-5.52920482121407985687255859375">
        <ele>30.6000003814697265625</ele>
        <time>2022-03-20T10:07:32.000Z</time>
      </trkpt>
      <trkpt lat="37.64685834757983684539794921875" lon="-5.52919040434062480926513671875">
        <ele>30.6000003814697265625</ele>
        <time>2022-03-20T10:07:37.000Z</time>
      </trkpt>
      <trkpt lat="37.64684929512441158294677734375" lon="-5.52918939851224422454833984375">
        <ele>30.6000003814697265625</ele>
        <time>2022-03-20T10:07:39.000Z</time>
      </trkpt>
      <trkpt lat="37.64684091322124004364013671875" lon="-5.5291869677603244781494140625">
        <ele>30.6000003814697265625</ele>
        <time>2022-03-20T10:07:44.000Z</time>
      </trkpt>
      <trkpt lat="37.64684124849736690521240234375" lon="-5.52916324697434902191162109375">
        <ele>30.6000003814697265625</ele>
        <time>2022-03-20T10:07:50.000Z</time>
      </trkpt>
      <trkpt lat="37.6468277536332607269287109375" lon="-5.52915469743311405181884765625">
        <ele>30.6000003814697265625</ele>
        <time>2022-03-20T10:07:57.000Z</time>
      </trkpt>
      <trkpt lat="37.646832950413227081298828125" lon="-5.52913122810423374176025390625">
        <ele>30.6000003814697265625</ele>
        <time>2022-03-20T10:08:01.000Z</time>
      </trkpt>
      <trkpt lat="37.646780647337436676025390625" lon="-5.52908998914062976837158203125">
        <ele>30.799999237060546875</ele>
        <time>2022-03-20T10:08:04.000Z</time>
      </trkpt>
      <trkpt lat="37.6467536576092243194580078125" lon="-5.52906878292560577392578125">
        <ele>30.799999237060546875</ele>
        <time>2022-03-20T10:08:05.000Z</time>
      </trkpt>
      <trkpt lat="37.6465876959264278411865234375" lon="-5.5290052480995655059814453125">
        <ele>31.6000003814697265625</ele>
        <time>2022-03-20T10:08:11.000Z</time>
      </trkpt>
      <trkpt lat="37.646435983479022979736328125" lon="-5.52897130139172077178955078125">
        <ele>31</ele>
        <time>2022-03-20T10:08:16.000Z</time>
      </trkpt>
      <trkpt lat="37.64640538953244686126708984375" lon="-5.52896560169756412506103515625">
        <ele>31</ele>
        <time>2022-03-20T10:08:17.000Z</time>
      </trkpt>
      <trkpt lat="37.64622098766267299652099609375" lon="-5.5289246141910552978515625">
        <ele>30.6000003814697265625</ele>
        <time>2022-03-20T10:08:24.000Z</time>
      </trkpt>
      <trkpt lat="37.6461957581341266632080078125" lon="-5.52891111932694911956787109375">
        <ele>30.6000003814697265625</ele>
        <time>2022-03-20T10:08:25.000Z</time>
      </trkpt>
      <trkpt lat="37.64614890329539775848388671875" lon="-5.52887432277202606201171875">
        <ele>30.200000762939453125</ele>
        <time>2022-03-20T10:08:27.000Z</time>
      </trkpt>
      <trkpt lat="37.6460073329508304595947265625" lon="-5.528802908957004547119140625">
        <ele>30.200000762939453125</ele>
        <time>2022-03-20T10:08:33.000Z</time>
      </trkpt>
      <trkpt lat="37.64587615616619586944580078125" lon="-5.52875253371894359588623046875">
        <ele>30.200000762939453125</ele>
        <time>2022-03-20T10:08:38.000Z</time>
      </trkpt>
      <trkpt lat="37.64585486613214015960693359375" lon="-5.52874289453029632568359375">
        <ele>30.3999996185302734375</ele>
        <time>2022-03-20T10:08:39.000Z</time>
      </trkpt>
      <trkpt lat="37.64578227885067462921142578125" lon="-5.52870626561343669891357421875">
        <ele>30.200000762939453125</ele>
        <time>2022-03-20T10:08:42.000Z</time>
      </trkpt>
      <trkpt lat="37.64568756334483623504638671875" lon="-5.5286644399166107177734375">
        <ele>29.6000003814697265625</ele>
        <time>2022-03-20T10:08:46.000Z</time>
      </trkpt>
      <trkpt lat="37.64552042819559574127197265625" lon="-5.52857584320008754730224609375">
        <ele>29.3999996185302734375</ele>
        <time>2022-03-20T10:08:53.000Z</time>
      </trkpt>
      <trkpt lat="37.6453746668994426727294921875" lon="-5.52842496894299983978271484375">
        <ele>29</ele>
        <time>2022-03-20T10:09:00.000Z</time>
      </trkpt>
      <trkpt lat="37.64525170437991619110107421875" lon="-5.52835975773632526397705078125">
        <ele>28.799999237060546875</ele>
        <time>2022-03-20T10:09:05.000Z</time>
      </trkpt>
      <trkpt lat="37.64515296556055545806884765625" lon="-5.528292618691921234130859375">
        <ele>28.799999237060546875</ele>
        <time>2022-03-20T10:09:10.000Z</time>
      </trkpt>
      <trkpt lat="37.64511977322399616241455078125" lon="-5.52826252765953540802001953125">
        <ele>28.6000003814697265625</ele>
        <time>2022-03-20T10:09:12.000Z</time>
      </trkpt>
      <trkpt lat="37.64510284177958965301513671875" lon="-5.52824643440544605255126953125">
        <ele>28.6000003814697265625</ele>
        <time>2022-03-20T10:09:13.000Z</time>
      </trkpt>
      <trkpt lat="37.64508591033518314361572265625" lon="-5.52822564728558063507080078125">
        <ele>28.3999996185302734375</ele>
        <time>2022-03-20T10:09:15.000Z</time>
      </trkpt>
      <trkpt lat="37.6450759358704090118408203125" lon="-5.52821324206888675689697265625">
        <ele>28</ele>
        <time>2022-03-20T10:09:17.000Z</time>
      </trkpt>
      <trkpt lat="37.6450303383171558380126953125" lon="-5.52816613577306270599365234375">
        <ele>27</ele>
        <time>2022-03-20T10:09:23.000Z</time>
      </trkpt>
      <trkpt lat="37.6450132392346858978271484375" lon="-5.52814803086221218109130859375">
        <ele>26.799999237060546875</ele>
        <time>2022-03-20T10:09:25.000Z</time>
      </trkpt>
      <trkpt lat="37.6449626125395298004150390625" lon="-5.52811165340244770050048828125">
        <ele>26.3999996185302734375</ele>
        <time>2022-03-20T10:09:30.000Z</time>
      </trkpt>
      <trkpt lat="37.64493755064904689788818359375" lon="-5.5281065404415130615234375">
        <ele>26</ele>
        <time>2022-03-20T10:09:33.000Z</time>
      </trkpt>
      <trkpt lat="37.6449175179004669189453125" lon="-5.52808667533099651336669921875">
        <ele>26</ele>
        <time>2022-03-20T10:09:35.000Z</time>
      </trkpt>
      <trkpt lat="37.6449059508740901947021484375" lon="-5.52807636559009552001953125">
        <ele>25.799999237060546875</ele>
        <time>2022-03-20T10:09:37.000Z</time>
      </trkpt>
      <trkpt lat="37.6449012570083141326904296875" lon="-5.528078377246856689453125">
        <ele>25.799999237060546875</ele>
        <time>2022-03-20T10:09:38.000Z</time>
      </trkpt>
      <trkpt lat="37.64489362947642803192138671875" lon="-5.52807996980845928192138671875">
        <ele>25.799999237060546875</ele>
        <time>2022-03-20T10:09:39.000Z</time>
      </trkpt>
      <trkpt lat="37.6448549889028072357177734375" lon="-5.52808684296905994415283203125">
        <ele>25.6000003814697265625</ele>
        <time>2022-03-20T10:09:43.000Z</time>
      </trkpt>
      <trkpt lat="37.64479019679129123687744140625" lon="-5.528061278164386749267578125">
        <ele>25.3999996185302734375</ele>
        <time>2022-03-20T10:09:50.000Z</time>
      </trkpt>
      <trkpt lat="37.64478500001132488250732421875" lon="-5.52805180661380290985107421875">
        <ele>25.3999996185302734375</ele>
        <time>2022-03-20T10:09:52.000Z</time>
      </trkpt>
      <trkpt lat="37.644760943949222564697265625" lon="-5.52804761566221714019775390625">
        <ele>34.40000152587890625</ele>
        <time>2022-03-20T10:09:54.000Z</time>
      </trkpt>
      <trkpt lat="37.64474694617092609405517578125" lon="-5.52805247716605663299560546875">
        <ele>38.40000152587890625</ele>
        <time>2022-03-20T10:09:55.000Z</time>
      </trkpt>
      <trkpt lat="37.6447284221649169921875" lon="-5.5280517227947711944580078125">
        <ele>40.200000762939453125</ele>
        <time>2022-03-20T10:09:56.000Z</time>
      </trkpt>
      <trkpt lat="37.64466782100498676300048828125" lon="-5.52804325707256793975830078125">
        <ele>41</ele>
        <time>2022-03-20T10:09:59.000Z</time>
      </trkpt>
      <trkpt lat="37.64462976716458797454833984375" lon="-5.5280314385890960693359375">
        <ele>40.799999237060546875</ele>
        <time>2022-03-20T10:10:01.000Z</time>
      </trkpt>
      <trkpt lat="37.64454343356192111968994140625" lon="-5.52795139141380786895751953125">
        <ele>39.59999847412109375</ele>
        <time>2022-03-20T10:10:05.000Z</time>
      </trkpt>
      <trkpt lat="37.6445006020367145538330078125" lon="-5.527885258197784423828125">
        <ele>38.799999237060546875</ele>
        <time>2022-03-20T10:10:08.000Z</time>
      </trkpt>
      <trkpt lat="37.6444674097001552581787109375" lon="-5.5278304405510425567626953125">
        <ele>37.799999237060546875</ele>
        <time>2022-03-20T10:10:10.000Z</time>
      </trkpt>
      <trkpt lat="37.64438434503972530364990234375" lon="-5.527626760303974151611328125">
        <ele>37.799999237060546875</ele>
        <time>2022-03-20T10:10:18.000Z</time>
      </trkpt>
      <trkpt lat="37.644340507686138153076171875" lon="-5.527545623481273651123046875">
        <ele>36.59999847412109375</ele>
        <time>2022-03-20T10:10:21.000Z</time>
      </trkpt>
      <trkpt lat="37.64432483352720737457275390625" lon="-5.52746708504855632781982421875">
        <ele>35.799999237060546875</ele>
        <time>2022-03-20T10:10:24.000Z</time>
      </trkpt>
      <trkpt lat="37.644387446343898773193359375" lon="-5.52733071148395538330078125">
        <ele>37</ele>
        <time>2022-03-20T10:10:29.000Z</time>
      </trkpt>
      <trkpt lat="37.64455768279731273651123046875" lon="-5.52726499736309051513671875">
        <ele>36.59999847412109375</ele>
        <time>2022-03-20T10:10:36.000Z</time>
      </trkpt>
      <trkpt lat="37.64471811242401599884033203125" lon="-5.52733875811100006103515625">
        <ele>36.40000152587890625</ele>
        <time>2022-03-20T10:10:43.000Z</time>
      </trkpt>
      <trkpt lat="37.6447376422584056854248046875" lon="-5.52735962904989719390869140625">
        <ele>36.40000152587890625</ele>
        <time>2022-03-20T10:10:44.000Z</time>
      </trkpt>
      <trkpt lat="37.6448647119104862213134765625" lon="-5.52743825130164623260498046875">
        <ele>36</ele>
        <time>2022-03-20T10:10:50.000Z</time>
      </trkpt>
      <trkpt lat="37.64494928531348705291748046875" lon="-5.5274854414165019989013671875">
        <ele>35.40000152587890625</ele>
        <time>2022-03-20T10:10:54.000Z</time>
      </trkpt>
      <trkpt lat="37.64501608908176422119140625" lon="-5.52752248942852020263671875">
        <ele>34.40000152587890625</ele>
        <time>2022-03-20T10:10:57.000Z</time>
      </trkpt>
      <trkpt lat="37.6450283266603946685791015625" lon="-5.52753615193068981170654296875">
        <ele>34.200000762939453125</ele>
        <time>2022-03-20T10:10:58.000Z</time>
      </trkpt>
      <trkpt lat="37.6450876705348491668701171875" lon="-5.52756280638277530670166015625">
        <ele>33.40000152587890625</ele>
        <time>2022-03-20T10:11:02.000Z</time>
      </trkpt>
      <trkpt lat="37.64514106325805187225341796875" lon="-5.5275702662765979766845703125">
        <ele>32.59999847412109375</ele>
        <time>2022-03-20T10:11:08.000Z</time>
      </trkpt>
      <trkpt lat="37.6451708190143108367919921875" lon="-5.5275823362171649932861328125">
        <ele>32.200000762939453125</ele>
        <time>2022-03-20T10:11:12.000Z</time>
      </trkpt>
      <trkpt lat="37.64518666081130504608154296875" lon="-5.52759130485355854034423828125">
        <ele>32.200000762939453125</ele>
        <time>2022-03-20T10:11:14.000Z</time>
      </trkpt>
      <trkpt lat="37.64520811848342418670654296875" lon="-5.52759080193936824798583984375">
        <ele>32.200000762939453125</ele>
        <time>2022-03-20T10:11:16.000Z</time>
      </trkpt>
      <trkpt lat="37.64527819119393825531005859375" lon="-5.5276103317737579345703125">
        <ele>32.200000762939453125</ele>
        <time>2022-03-20T10:11:22.000Z</time>
      </trkpt>
      <trkpt lat="37.645375840365886688232421875" lon="-5.5276215635240077972412109375">
        <ele>32.200000762939453125</ele>
        <time>2022-03-20T10:11:28.000Z</time>
      </trkpt>
      <trkpt lat="37.64539822004735469818115234375" lon="-5.527626760303974151611328125">
        <ele>32.200000762939453125</ele>
        <time>2022-03-20T10:11:29.000Z</time>
      </trkpt>
      <trkpt lat="37.6455366052687168121337890625" lon="-5.5276678316295146942138671875">
        <ele>31.799999237060546875</ele>
        <time>2022-03-20T10:11:35.000Z</time>
      </trkpt>
      <trkpt lat="37.64559586532413959503173828125" lon="-5.527679733932018280029296875">
        <ele>30.799999237060546875</ele>
        <time>2022-03-20T10:11:38.000Z</time>
      </trkpt>
      <trkpt lat="37.64569024555385112762451171875" lon="-5.5276819132268428802490234375">
        <ele>30.3999996185302734375</ele>
        <time>2022-03-20T10:11:42.000Z</time>
      </trkpt>
      <trkpt lat="37.645878754556179046630859375" lon="-5.52769976668059825897216796875">
        <ele>31.3999996185302734375</ele>
        <time>2022-03-20T10:11:50.000Z</time>
      </trkpt>
      <trkpt lat="37.645953185856342315673828125" lon="-5.5276742018759250640869140625">
        <ele>32</ele>
        <time>2022-03-20T10:11:53.000Z</time>
      </trkpt>
      <trkpt lat="37.64597405679523944854736328125" lon="-5.52767478860914707183837890625">
        <ele>32</ele>
        <time>2022-03-20T10:11:54.000Z</time>
      </trkpt>
      <trkpt lat="37.645992077887058258056640625" lon="-5.5276758782565593719482421875">
        <ele>32.200000762939453125</ele>
        <time>2022-03-20T10:11:55.000Z</time>
      </trkpt>
      <trkpt lat="37.64613096602261066436767578125" lon="-5.52766405977308750152587890625">
        <ele>32.59999847412109375</ele>
        <time>2022-03-20T10:12:01.000Z</time>
      </trkpt>
      <trkpt lat="37.6461937464773654937744140625" lon="-5.5276601202785968780517578125">
        <ele>33</ele>
        <time>2022-03-20T10:12:04.000Z</time>
      </trkpt>
      <trkpt lat="37.64625686220824718475341796875" lon="-5.527646206319332122802734375">
        <ele>34.40000152587890625</ele>
        <time>2022-03-20T10:12:07.000Z</time>
      </trkpt>
      <trkpt lat="37.64627094380557537078857421875" lon="-5.5276420153677463531494140625">
        <ele>34.59999847412109375</ele>
        <time>2022-03-20T10:12:08.000Z</time>
      </trkpt>
      <trkpt lat="37.64635006897151470184326171875" lon="-5.52762147970497608184814453125">
        <ele>35.40000152587890625</ele>
        <time>2022-03-20T10:12:14.000Z</time>
      </trkpt>
      <trkpt lat="37.6463633961975574493408203125" lon="-5.52761779166758060455322265625">
        <ele>35.59999847412109375</ele>
        <time>2022-03-20T10:12:15.000Z</time>
      </trkpt>
      <trkpt lat="37.6463873684406280517578125" lon="-5.527607314288616180419921875">
        <ele>36</ele>
        <time>2022-03-20T10:12:20.000Z</time>
      </trkpt>
      <trkpt lat="37.64641888439655303955078125" lon="-5.5276326276361942291259765625">
        <ele>35.40000152587890625</ele>
        <time>2022-03-20T10:12:25.000Z</time>
      </trkpt>
      <trkpt lat="37.64647378586232662200927734375" lon="-5.52762500010430812835693359375">
        <ele>36.200000762939453125</ele>
        <time>2022-03-20T10:12:33.000Z</time>
      </trkpt>
      <trkpt lat="37.64648334123194217681884765625" lon="-5.5276264250278472900390625">
        <ele>36.59999847412109375</ele>
        <time>2022-03-20T10:12:35.000Z</time>
      </trkpt>
      <trkpt lat="37.6464820839464664459228515625" lon="-5.5276222340762615203857421875">
        <ele>36.59999847412109375</ele>
        <time>2022-03-20T10:12:36.000Z</time>
      </trkpt>
      <trkpt lat="37.646520137786865234375" lon="-5.5276532471179962158203125">
        <ele>37.200000762939453125</ele>
        <time>2022-03-20T10:12:40.000Z</time>
      </trkpt>
      <trkpt lat="37.64653346501290798187255859375" lon="-5.5276540853083133697509765625">
        <ele>38.59999847412109375</ele>
        <time>2022-03-20T10:12:41.000Z</time>
      </trkpt>
      <trkpt lat="37.64655240811407566070556640625" lon="-5.52764897234737873077392578125">
        <ele>40</ele>
        <time>2022-03-20T10:12:43.000Z</time>
      </trkpt>
      <trkpt lat="37.646571435034275054931640625" lon="-5.52763405255973339080810546875">
        <ele>40.59999847412109375</ele>
        <time>2022-03-20T10:12:45.000Z</time>
      </trkpt>
      <trkpt lat="37.64657872729003429412841796875" lon="-5.527628101408481597900390625">
        <ele>41.200000762939453125</ele>
        <time>2022-03-20T10:12:46.000Z</time>
      </trkpt>
      <trkpt lat="37.6466126739978790283203125" lon="-5.5276115052402019500732421875">
        <ele>42.40000152587890625</ele>
        <time>2022-03-20T10:12:50.000Z</time>
      </trkpt>
      <trkpt lat="37.6466205529868602752685546875" lon="-5.52760605700314044952392578125">
        <ele>42.59999847412109375</ele>
        <time>2022-03-20T10:12:51.000Z</time>
      </trkpt>
      <trkpt lat="37.6466314494609832763671875" lon="-5.52756632678210735321044921875">
        <ele>42.799999237060546875</ele>
        <time>2022-03-20T10:12:53.000Z</time>
      </trkpt>
      <trkpt lat="37.6466239057481288909912109375" lon="-5.52751251496374607086181640625">
        <ele>43.40000152587890625</ele>
        <time>2022-03-20T10:12:55.000Z</time>
      </trkpt>
      <trkpt lat="37.64661963097751140594482421875" lon="-5.52748502232134342193603515625">
        <ele>43.59999847412109375</ele>
        <time>2022-03-20T10:12:56.000Z</time>
      </trkpt>
      <trkpt lat="37.646601609885692596435546875" lon="-5.52742567844688892364501953125">
        <ele>43</ele>
        <time>2022-03-20T10:12:58.000Z</time>
      </trkpt>
      <trkpt lat="37.6465833373367786407470703125" lon="-5.52736465819180011749267578125">
        <ele>43.59999847412109375</ele>
        <time>2022-03-20T10:13:00.000Z</time>
      </trkpt>
      <trkpt lat="37.64656062237918376922607421875" lon="-5.5273045599460601806640625">
        <ele>43</ele>
        <time>2022-03-20T10:13:02.000Z</time>
      </trkpt>
      <trkpt lat="37.6465498097240924835205078125" lon="-5.52727212198078632354736328125">
        <ele>43.200000762939453125</ele>
        <time>2022-03-20T10:13:03.000Z</time>
      </trkpt>
      <trkpt lat="37.6464891247451305389404296875" lon="-5.52708772011101245880126953125">
        <ele>43.40000152587890625</ele>
        <time>2022-03-20T10:13:09.000Z</time>
      </trkpt>
      <trkpt lat="37.6464758813381195068359375" lon="-5.52705989219248294830322265625">
        <ele>43.59999847412109375</ele>
        <time>2022-03-20T10:13:10.000Z</time>
      </trkpt>
      <trkpt lat="37.64642282389104366302490234375" lon="-5.52687465213239192962646484375">
        <ele>44.59999847412109375</ele>
        <time>2022-03-20T10:13:16.000Z</time>
      </trkpt>
      <trkpt lat="37.64641226269304752349853515625" lon="-5.5268430523574352264404296875">
        <ele>44.799999237060546875</ele>
        <time>2022-03-20T10:13:17.000Z</time>
      </trkpt>
      <trkpt lat="37.64640136621892452239990234375" lon="-5.5268118716776371002197265625">
        <ele>44.799999237060546875</ele>
        <time>2022-03-20T10:13:18.000Z</time>
      </trkpt>
      <trkpt lat="37.6463900506496429443359375" lon="-5.52677993662655353546142578125">
        <ele>44.40000152587890625</ele>
        <time>2022-03-20T10:13:19.000Z</time>
      </trkpt>
      <trkpt lat="37.64637772925198078155517578125" lon="-5.52674741484224796295166015625">
        <ele>43.799999237060546875</ele>
        <time>2022-03-20T10:13:20.000Z</time>
      </trkpt>
      <trkpt lat="37.64633498154580593109130859375" lon="-5.5265899188816547393798828125">
        <ele>43.40000152587890625</ele>
        <time>2022-03-20T10:13:25.000Z</time>
      </trkpt>
      <trkpt lat="37.64629374258220195770263671875" lon="-5.52646896801888942718505859375">
        <ele>43.40000152587890625</ele>
        <time>2022-03-20T10:13:29.000Z</time>
      </trkpt>
      <trkpt lat="37.646270692348480224609375" lon="-5.526378862559795379638671875">
        <ele>43.200000762939453125</ele>
        <time>2022-03-20T10:13:32.000Z</time>
      </trkpt>
      <trkpt lat="37.6462115161120891571044921875" lon="-5.5261574126780033111572265625">
        <ele>43.799999237060546875</ele>
        <time>2022-03-20T10:13:39.000Z</time>
      </trkpt>
      <trkpt lat="37.6461823470890522003173828125" lon="-5.52606043405830860137939453125">
        <ele>43.799999237060546875</ele>
        <time>2022-03-20T10:13:42.000Z</time>
      </trkpt>
      <trkpt lat="37.6461642421782016754150390625" lon="-5.52599471993744373321533203125">
        <ele>44</ele>
        <time>2022-03-20T10:13:44.000Z</time>
      </trkpt>
      <trkpt lat="37.64612291939556598663330078125" lon="-5.52586412988603115081787109375">
        <ele>44.799999237060546875</ele>
        <time>2022-03-20T10:13:49.000Z</time>
      </trkpt>
      <trkpt lat="37.646110095083713531494140625" lon="-5.52585189230740070343017578125">
        <ele>44.59999847412109375</ele>
        <time>2022-03-20T10:13:50.000Z</time>
      </trkpt>
      <trkpt lat="37.64606692828238010406494140625" lon="-5.5258201248943805694580078125">
        <ele>43.59999847412109375</ele>
        <time>2022-03-20T10:13:53.000Z</time>
      </trkpt>
      <trkpt lat="37.64601378701627254486083984375" lon="-5.52582054398953914642333984375">
        <ele>42.59999847412109375</ele>
        <time>2022-03-20T10:13:57.000Z</time>
      </trkpt>
      <trkpt lat="37.64598562382161617279052734375" lon="-5.52582406438887119293212890625">
        <ele>41.40000152587890625</ele>
        <time>2022-03-20T10:13:59.000Z</time>
      </trkpt>
      <trkpt lat="37.6459412835538387298583984375" lon="-5.525816939771175384521484375">
        <ele>40.799999237060546875</ele>
        <time>2022-03-20T10:14:01.000Z</time>
      </trkpt>
      <trkpt lat="37.64591488055884838104248046875" lon="-5.5258105695247650146484375">
        <ele>40.200000762939453125</ele>
        <time>2022-03-20T10:14:02.000Z</time>
      </trkpt>
      <trkpt lat="37.64588939957320690155029296875" lon="-5.525797493755817413330078125">
        <ele>39.40000152587890625</ele>
        <time>2022-03-20T10:14:03.000Z</time>
      </trkpt>
      <trkpt lat="37.64586391858756542205810546875" lon="-5.5257802270352840423583984375">
        <ele>39</ele>
        <time>2022-03-20T10:14:04.000Z</time>
      </trkpt>
      <trkpt lat="37.64577205292880535125732421875" lon="-5.52575315348803997039794921875">
        <ele>38.59999847412109375</ele>
        <time>2022-03-20T10:14:08.000Z</time>
      </trkpt>
      <trkpt lat="37.64563911594450473785400390625" lon="-5.52574175409972667694091796875">
        <ele>38</ele>
        <time>2022-03-20T10:14:13.000Z</time>
      </trkpt>
      <trkpt lat="37.64561346732079982757568359375" lon="-5.52574016153812408447265625">
        <ele>37.200000762939453125</ele>
        <time>2022-03-20T10:14:14.000Z</time>
      </trkpt>
      <trkpt lat="37.64558664523065090179443359375" lon="-5.52573957480490207672119140625">
        <ele>36.40000152587890625</ele>
        <time>2022-03-20T10:14:15.000Z</time>
      </trkpt>
      <trkpt lat="37.645487152040004730224609375" lon="-5.52572281099855899810791015625">
        <ele>35.40000152587890625</ele>
        <time>2022-03-20T10:14:19.000Z</time>
      </trkpt>
      <trkpt lat="37.64538816176354885101318359375" lon="-5.525692887604236602783203125">
        <ele>34</ele>
        <time>2022-03-20T10:14:23.000Z</time>
      </trkpt>
      <trkpt lat="37.6453126408159732818603515625" lon="-5.525715015828609466552734375">
        <ele>33</ele>
        <time>2022-03-20T10:14:28.000Z</time>
      </trkpt>
      <trkpt lat="37.64529814012348651885986328125" lon="-5.525716356933116912841796875">
        <ele>32.799999237060546875</ele>
        <time>2022-03-20T10:14:29.000Z</time>
      </trkpt>
      <trkpt lat="37.64525539241731166839599609375" lon="-5.52571711130440235137939453125">
        <ele>31.3999996185302734375</ele>
        <time>2022-03-20T10:14:32.000Z</time>
      </trkpt>
      <trkpt lat="37.64521264471113681793212890625" lon="-5.52571275271475315093994140625">
        <ele>30.3999996185302734375</ele>
        <time>2022-03-20T10:14:36.000Z</time>
      </trkpt>
      <trkpt lat="37.64519353397190570831298828125" lon="-5.52571157924830913543701171875">
        <ele>30.3999996185302734375</ele>
        <time>2022-03-20T10:14:38.000Z</time>
      </trkpt>
      <trkpt lat="37.6451513729989528656005859375" lon="-5.5257148481905460357666015625">
        <ele>30.6000003814697265625</ele>
        <time>2022-03-20T10:14:42.000Z</time>
      </trkpt>
      <trkpt lat="37.6451151631772518157958984375" lon="-5.5257165245711803436279296875">
        <ele>31</ele>
        <time>2022-03-20T10:14:45.000Z</time>
      </trkpt>
      <trkpt lat="37.6450336910784244537353515625" lon="-5.5257292650640010833740234375">
        <ele>31.3999996185302734375</ele>
        <time>2022-03-20T10:14:50.000Z</time>
      </trkpt>
      <trkpt lat="37.6450125686824321746826171875" lon="-5.5257301032543182373046875">
        <ele>31.6000003814697265625</ele>
        <time>2022-03-20T10:14:51.000Z</time>
      </trkpt>
      <trkpt lat="37.64487585984170436859130859375" lon="-5.525716356933116912841796875">
        <ele>31.200000762939453125</ele>
        <time>2022-03-20T10:14:59.000Z</time>
      </trkpt>
      <trkpt lat="37.64479422010481357574462890625" lon="-5.52570370025932788848876953125">
        <ele>30.3999996185302734375</ele>
        <time>2022-03-20T10:15:06.000Z</time>
      </trkpt>
      <trkpt lat="37.64475968666374683380126953125" lon="-5.52570126950740814208984375">
        <ele>30.200000762939453125</ele>
        <time>2022-03-20T10:15:09.000Z</time>
      </trkpt>
      <trkpt lat="37.64474979601800441741943359375" lon="-5.5257068015635013580322265625">
        <ele>30.200000762939453125</ele>
        <time>2022-03-20T10:15:10.000Z</time>
      </trkpt>
      <trkpt lat="37.64474107883870601654052734375" lon="-5.52571468055248260498046875">
        <ele>31.6000003814697265625</ele>
        <time>2022-03-20T10:15:13.000Z</time>
      </trkpt>
      <trkpt lat="37.644736468791961669921875" lon="-5.525715686380863189697265625">
        <ele>32.799999237060546875</ele>
        <time>2022-03-20T10:15:14.000Z</time>
      </trkpt>
      <trkpt lat="37.64472850598394870758056640625" lon="-5.52571292035281658172607421875">
        <ele>34</ele>
        <time>2022-03-20T10:15:16.000Z</time>
      </trkpt>
      <trkpt lat="37.64470302499830722808837890625" lon="-5.5256925523281097412109375">
        <ele>34.59999847412109375</ele>
        <time>2022-03-20T10:15:20.000Z</time>
      </trkpt>
      <trkpt lat="37.6446551643311977386474609375" lon="-5.5256692506372928619384765625">
        <ele>35.200000762939453125</ele>
        <time>2022-03-20T10:15:23.000Z</time>
      </trkpt>
      <trkpt lat="37.6446119137108325958251953125" lon="-5.52567486651241779327392578125">
        <ele>35.59999847412109375</ele>
        <time>2022-03-20T10:15:25.000Z</time>
      </trkpt>
      <trkpt lat="37.6445421762764453887939453125" lon="-5.52568760700523853302001953125">
        <ele>35.200000762939453125</ele>
        <time>2022-03-20T10:15:28.000Z</time>
      </trkpt>
      <trkpt lat="37.644501440227031707763671875" lon="-5.52568056620657444000244140625">
        <ele>34.59999847412109375</ele>
        <time>2022-03-20T10:15:30.000Z</time>
      </trkpt>
      <trkpt lat="37.6444771327078342437744140625" lon="-5.52566614933311939239501953125">
        <ele>34.40000152587890625</ele>
        <time>2022-03-20T10:15:31.000Z</time>
      </trkpt>
      <trkpt lat="37.6443560980260372161865234375" lon="-5.52563019096851348876953125">
        <ele>34.799999237060546875</ele>
        <time>2022-03-20T10:15:36.000Z</time>
      </trkpt>
      <trkpt lat="37.64430622570216655731201171875" lon="-5.52562692202627658843994140625">
        <ele>35</ele>
        <time>2022-03-20T10:15:38.000Z</time>
      </trkpt>
      <trkpt lat="37.64420597814023494720458984375" lon="-5.5256078951060771942138671875">
        <ele>34.200000762939453125</ele>
        <time>2022-03-20T10:15:42.000Z</time>
      </trkpt>
      <trkpt lat="37.644147388637065887451171875" lon="-5.525591634213924407958984375">
        <ele>34</ele>
        <time>2022-03-20T10:15:45.000Z</time>
      </trkpt>
      <trkpt lat="37.64400162734091281890869140625" lon="-5.52554276771843433380126953125">
        <ele>34.799999237060546875</ele>
        <time>2022-03-20T10:15:51.000Z</time>
      </trkpt>
      <trkpt lat="37.6439463905990123748779296875" lon="-5.52550236694514751434326171875">
        <ele>35.200000762939453125</ele>
        <time>2022-03-20T10:15:54.000Z</time>
      </trkpt>
      <trkpt lat="37.6438712887465953826904296875" lon="-5.52542106248438358306884765625">
        <ele>35.59999847412109375</ele>
        <time>2022-03-20T10:15:58.000Z</time>
      </trkpt>
      <trkpt lat="37.643815465271472930908203125" lon="-5.52535065449774265289306640625">
        <ele>35.59999847412109375</ele>
        <time>2022-03-20T10:16:01.000Z</time>
      </trkpt>
      <trkpt lat="37.64376710169017314910888671875" lon="-5.52522375248372554779052734375">
        <ele>35.59999847412109375</ele>
        <time>2022-03-20T10:16:06.000Z</time>
      </trkpt>
      <trkpt lat="37.64379702508449554443359375" lon="-5.5250288732349872589111328125">
        <ele>35.200000762939453125</ele>
        <time>2022-03-20T10:16:13.000Z</time>
      </trkpt>
      <trkpt lat="37.643831558525562286376953125" lon="-5.52486651577055454254150390625">
        <ele>35</ele>
        <time>2022-03-20T10:16:19.000Z</time>
      </trkpt>
      <trkpt lat="37.64384253881871700286865234375" lon="-5.5248396098613739013671875">
        <ele>35</ele>
        <time>2022-03-20T10:16:20.000Z</time>
      </trkpt>
      <trkpt lat="37.64392602257430553436279296875" lon="-5.5246262066066265106201171875">
        <ele>35</ele>
        <time>2022-03-20T10:16:27.000Z</time>
      </trkpt>
      <trkpt lat="37.6440023817121982574462890625" lon="-5.524418167769908905029296875">
        <ele>35.200000762939453125</ele>
        <time>2022-03-20T10:16:34.000Z</time>
      </trkpt>
      <trkpt lat="37.64401772059500217437744140625" lon="-5.52439360879361629486083984375">
        <ele>35</ele>
        <time>2022-03-20T10:16:35.000Z</time>
      </trkpt>
      <trkpt lat="37.644089050590991973876953125" lon="-5.52417031489312648773193359375">
        <ele>34.799999237060546875</ele>
        <time>2022-03-20T10:16:42.000Z</time>
      </trkpt>
      <trkpt lat="37.6440737955272197723388671875" lon="-5.52406922914087772369384765625">
        <ele>34.200000762939453125</ele>
        <time>2022-03-20T10:16:45.000Z</time>
      </trkpt>
      <trkpt lat="37.64405074529349803924560546875" lon="-5.5239620245993137359619140625">
        <ele>34.799999237060546875</ele>
        <time>2022-03-20T10:16:48.000Z</time>
      </trkpt>
      <trkpt lat="37.6439876295626163482666015625" lon="-5.523727834224700927734375">
        <ele>34.40000152587890625</ele>
        <time>2022-03-20T10:16:55.000Z</time>
      </trkpt>
      <trkpt lat="37.64398167841136455535888671875" lon="-5.52368869073688983917236328125">
        <ele>34.59999847412109375</ele>
        <time>2022-03-20T10:16:56.000Z</time>
      </trkpt>
      <trkpt lat="37.64390557073056697845458984375" lon="-5.52346573211252689361572265625">
        <ele>35.200000762939453125</ele>
        <time>2022-03-20T10:17:02.000Z</time>
      </trkpt>
      <trkpt lat="37.6438763178884983062744140625" lon="-5.5233992636203765869140625">
        <ele>35.200000762939453125</ele>
        <time>2022-03-20T10:17:04.000Z</time>
      </trkpt>
      <trkpt lat="37.6438005454838275909423828125" lon="-5.523219220340251922607421875">
        <ele>35</ele>
        <time>2022-03-20T10:17:10.000Z</time>
      </trkpt>
      <trkpt lat="37.6437797583639621734619140625" lon="-5.52307362668216228485107421875">
        <ele>35</ele>
        <time>2022-03-20T10:17:15.000Z</time>
      </trkpt>
      <trkpt lat="37.643741704523563385009765625" lon="-5.5229406058788299560546875">
        <ele>35.200000762939453125</ele>
        <time>2022-03-20T10:17:19.000Z</time>
      </trkpt>
      <trkpt lat="37.64372351579368114471435546875" lon="-5.5228415317833423614501953125">
        <ele>35</ele>
        <time>2022-03-20T10:17:22.000Z</time>
      </trkpt>
      <trkpt lat="37.6437033154070377349853515625" lon="-5.52267263643443584442138671875">
        <ele>35.40000152587890625</ele>
        <time>2022-03-20T10:17:27.000Z</time>
      </trkpt>
      <trkpt lat="37.64367389492690563201904296875" lon="-5.5225780047476291656494140625">
        <ele>35.200000762939453125</ele>
        <time>2022-03-20T10:17:30.000Z</time>
      </trkpt>
      <trkpt lat="37.64365092851221561431884765625" lon="-5.52246828563511371612548828125">
        <ele>34.40000152587890625</ele>
        <time>2022-03-20T10:17:34.000Z</time>
      </trkpt>
      <trkpt lat="37.6436439715325832366943359375" lon="-5.5224392004311084747314453125">
        <ele>34.40000152587890625</ele>
        <time>2022-03-20T10:17:35.000Z</time>
      </trkpt>
      <trkpt lat="37.643634416162967681884765625" lon="-5.52240408025681972503662109375">
        <ele>34.40000152587890625</ele>
        <time>2022-03-20T10:17:36.000Z</time>
      </trkpt>
      <trkpt lat="37.643596865236759185791015625" lon="-5.52228572778403759002685546875">
        <ele>36.40000152587890625</ele>
        <time>2022-03-20T10:17:42.000Z</time>
      </trkpt>
      <trkpt lat="37.64357850886881351470947265625" lon="-5.52226142026484012603759765625">
        <ele>34</ele>
        <time>2022-03-20T10:17:46.000Z</time>
      </trkpt>
      <trkpt lat="37.64355855993926525115966796875" lon="-5.522247254848480224609375">
        <ele>34</ele>
        <time>2022-03-20T10:17:47.000Z</time>
      </trkpt>
      <trkpt lat="37.643534503877162933349609375" lon="-5.52223292179405689239501953125">
        <ele>34</ele>
        <time>2022-03-20T10:17:48.000Z</time>
      </trkpt>
      <trkpt lat="37.6434230245649814605712890625" lon="-5.52222554571926593780517578125">
        <ele>34</ele>
        <time>2022-03-20T10:17:52.000Z</time>
      </trkpt>
      <trkpt lat="37.64329008758068084716796875" lon="-5.52224482409656047821044921875">
        <ele>34.200000762939453125</ele>
        <time>2022-03-20T10:17:58.000Z</time>
      </trkpt>
      <trkpt lat="37.64315874315798282623291015625" lon="-5.52227164618670940399169921875">
        <ele>34.40000152587890625</ele>
        <time>2022-03-20T10:18:04.000Z</time>
      </trkpt>
      <trkpt lat="37.64305195771157741546630859375" lon="-5.522281788289546966552734375">
        <ele>34.799999237060546875</ele>
        <time>2022-03-20T10:18:09.000Z</time>
      </trkpt>
      <trkpt lat="37.643022872507572174072265625" lon="-5.52228891290724277496337890625">
        <ele>35.200000762939453125</ele>
        <time>2022-03-20T10:18:11.000Z</time>
      </trkpt>
      <trkpt lat="37.6429809629917144775390625" lon="-5.52231120876967906951904296875">
        <ele>36.200000762939453125</ele>
        <time>2022-03-20T10:18:15.000Z</time>
      </trkpt>
      <trkpt lat="37.64293427579104900360107421875" lon="-5.5223335884511470794677734375">
        <ele>36.40000152587890625</ele>
        <time>2022-03-20T10:18:18.000Z</time>
      </trkpt>
      <trkpt lat="37.6428527198731899261474609375" lon="-5.522352866828441619873046875">
        <ele>37.40000152587890625</ele>
        <time>2022-03-20T10:18:23.000Z</time>
      </trkpt>
      <trkpt lat="37.64279094524681568145751953125" lon="-5.52235647104680538177490234375">
        <ele>37.59999847412109375</ele>
        <time>2022-03-20T10:18:28.000Z</time>
      </trkpt>
      <trkpt lat="37.64275406487286090850830078125" lon="-5.52237424068152904510498046875">
        <ele>37.59999847412109375</ele>
        <time>2022-03-20T10:18:30.000Z</time>
      </trkpt>
      <trkpt lat="37.64273914508521556854248046875" lon="-5.52237935364246368408203125">
        <ele>37.799999237060546875</ele>
        <time>2022-03-20T10:18:31.000Z</time>
      </trkpt>
      <trkpt lat="37.6427011750638484954833984375" lon="-5.5223805271089076995849609375">
        <ele>38.799999237060546875</ele>
        <time>2022-03-20T10:18:34.000Z</time>
      </trkpt>
      <trkpt lat="37.642617523670196533203125" lon="-5.5223433114588260650634765625">
        <ele>39.799999237060546875</ele>
        <time>2022-03-20T10:18:38.000Z</time>
      </trkpt>
      <trkpt lat="37.64259380288422107696533203125" lon="-5.5223319120705127716064453125">
        <ele>40.200000762939453125</ele>
        <time>2022-03-20T10:18:39.000Z</time>
      </trkpt>
      <trkpt lat="37.64246128499507904052734375" lon="-5.522251613438129425048828125">
        <ele>40.59999847412109375</ele>
        <time>2022-03-20T10:18:45.000Z</time>
      </trkpt>
      <trkpt lat="37.6423166133463382720947265625" lon="-5.52210174500942230224609375">
        <ele>40.200000762939453125</ele>
        <time>2022-03-20T10:18:52.000Z</time>
      </trkpt>
      <trkpt lat="37.64227629639208316802978515625" lon="-5.52208037115633487701416015625">
        <ele>40.59999847412109375</ele>
        <time>2022-03-20T10:18:54.000Z</time>
      </trkpt>
      <trkpt lat="37.6422388292849063873291015625" lon="-5.5220596678555011749267578125">
        <ele>41.40000152587890625</ele>
        <time>2022-03-20T10:18:56.000Z</time>
      </trkpt>
      <trkpt lat="37.6422193832695484161376953125" lon="-5.522047765552997589111328125">
        <ele>42</ele>
        <time>2022-03-20T10:18:57.000Z</time>
      </trkpt>
      <trkpt lat="37.64218828640878200531005859375" lon="-5.52203477360308170318603515625">
        <ele>42.799999237060546875</ele>
        <time>2022-03-20T10:18:59.000Z</time>
      </trkpt>
      <trkpt lat="37.64216850511729717254638671875" lon="-5.52201180718839168548583984375">
        <ele>44.200000762939453125</ele>
        <time>2022-03-20T10:19:01.000Z</time>
      </trkpt>
      <trkpt lat="37.642157860100269317626953125" lon="-5.522000491619110107421875">
        <ele>45</ele>
        <time>2022-03-20T10:19:02.000Z</time>
      </trkpt>
      <trkpt lat="37.64214989729225635528564453125" lon="-5.5219879187643527984619140625">
        <ele>45.799999237060546875</ele>
        <time>2022-03-20T10:19:03.000Z</time>
      </trkpt>
      <trkpt lat="37.64214470051229000091552734375" lon="-5.52192111499607563018798828125">
        <ele>46.799999237060546875</ele>
        <time>2022-03-20T10:19:07.000Z</time>
      </trkpt>
      <trkpt lat="37.642161883413791656494140625" lon="-5.5219161696732044219970703125">
        <ele>46.799999237060546875</ele>
        <time>2022-03-20T10:19:08.000Z</time>
      </trkpt>
      <trkpt lat="37.642275206744670867919921875" lon="-5.52193569950759410858154296875">
        <ele>47.40000152587890625</ele>
        <time>2022-03-20T10:19:14.000Z</time>
      </trkpt>
      <trkpt lat="37.6423058845102787017822265625" lon="-5.521939806640148162841796875">
        <ele>47.799999237060546875</ele>
        <time>2022-03-20T10:19:17.000Z</time>
      </trkpt>
      <trkpt lat="37.642334885895252227783203125" lon="-5.52195028401911258697509765625">
        <ele>47.799999237060546875</ele>
        <time>2022-03-20T10:19:20.000Z</time>
      </trkpt>
      <trkpt lat="37.6423504762351512908935546875" lon="-5.52195715717971324920654296875">
        <ele>47.799999237060546875</ele>
        <time>2022-03-20T10:19:21.000Z</time>
      </trkpt>
      <trkpt lat="37.6423640549182891845703125" lon="-5.5219553969800472259521484375">
        <ele>48.200000762939453125</ele>
        <time>2022-03-20T10:19:26.000Z</time>
      </trkpt>
      <trkpt lat="37.64235776849091053009033203125" lon="-5.52195464260876178741455078125">
        <ele>48.799999237060546875</ele>
        <time>2022-03-20T10:19:30.000Z</time>
      </trkpt>
      <trkpt lat="37.6423558406531810760498046875" lon="-5.521953888237476348876953125">
        <ele>48.799999237060546875</ele>
        <time>2022-03-20T10:19:31.000Z</time>
      </trkpt>
      <trkpt lat="37.6423521526157855987548828125" lon="-5.5219615995883941650390625">
        <ele>48.200000762939453125</ele>
        <time>2022-03-20T10:19:36.000Z</time>
      </trkpt>
      <trkpt lat="37.6423521526157855987548828125" lon="-5.5219615995883941650390625">
        <ele>48.40000152587890625</ele>
        <time>2022-03-20T10:19:39.000Z</time>
      </trkpt>
      <trkpt lat="37.642352990806102752685546875" lon="-5.5219604261219501495361328125">
        <ele>49</ele>
        <time>2022-03-20T10:19:42.000Z</time>
      </trkpt>
      <trkpt lat="37.64235592447221279144287109375" lon="-5.52195824682712554931640625">
        <ele>49</ele>
        <time>2022-03-20T10:19:46.000Z</time>
      </trkpt>
      <trkpt lat="37.64235860668122768402099609375" lon="-5.52195715717971324920654296875">
        <ele>47.59999847412109375</ele>
        <time>2022-03-20T10:19:50.000Z</time>
      </trkpt>
      <trkpt lat="37.64235877431929111480712890625" lon="-5.52195548079907894134521484375">
        <ele>47.40000152587890625</ele>
        <time>2022-03-20T10:19:54.000Z</time>
      </trkpt>
      <trkpt lat="37.642358355224132537841796875" lon="-5.52195397205650806427001953125">
        <ele>47.200000762939453125</ele>
        <time>2022-03-20T10:19:57.000Z</time>
      </trkpt>
      <trkpt lat="37.64235667884349822998046875" lon="-5.5219537205994129180908203125">
        <ele>47</ele>
        <time>2022-03-20T10:20:01.000Z</time>
      </trkpt>
      <trkpt lat="37.64235667884349822998046875" lon="-5.5219537205994129180908203125">
        <ele>47</ele>
        <time>2022-03-20T10:20:03.000Z</time>
      </trkpt>
      <trkpt lat="37.64235667884349822998046875" lon="-5.5219537205994129180908203125">
        <ele>47</ele>
        <time>2022-03-20T10:20:05.000Z</time>
      </trkpt>
      <trkpt lat="37.6423555053770542144775390625" lon="-5.5219537205994129180908203125">
        <ele>47.200000762939453125</ele>
        <time>2022-03-20T10:20:07.000Z</time>
      </trkpt>
      <trkpt lat="37.6423534937202930450439453125" lon="-5.521957576274871826171875">
        <ele>47.59999847412109375</ele>
        <time>2022-03-20T10:20:13.000Z</time>
      </trkpt>
      <trkpt lat="37.64235307462513446807861328125" lon="-5.52196118049323558807373046875">
        <ele>47.59999847412109375</ele>
        <time>2022-03-20T10:20:16.000Z</time>
      </trkpt>
      <trkpt lat="37.64235273934900760650634765625" lon="-5.5219654552638530731201171875">
        <ele>47.40000152587890625</ele>
        <time>2022-03-20T10:20:19.000Z</time>
      </trkpt>
      <trkpt lat="37.64235106296837329864501953125" lon="-5.521967969834804534912109375">
        <ele>47</ele>
        <time>2022-03-20T10:20:23.000Z</time>
      </trkpt>
      <trkpt lat="37.6423481293022632598876953125" lon="-5.521968305110931396484375">
        <ele>47</ele>
        <time>2022-03-20T10:20:24.000Z</time>
      </trkpt>
      <trkpt lat="37.6423467881977558135986328125" lon="-5.5219694785773754119873046875">
        <ele>47</ele>
        <time>2022-03-20T10:20:25.000Z</time>
      </trkpt>
      <trkpt lat="37.642293311655521392822265625" lon="-5.52194776944816112518310546875">
        <ele>47</ele>
        <time>2022-03-20T10:20:34.000Z</time>
      </trkpt>
      <trkpt lat="37.642128355801105499267578125" lon="-5.5218784511089324951171875">
        <ele>47.200000762939453125</ele>
        <time>2022-03-20T10:20:40.000Z</time>
      </trkpt>
      <trkpt lat="37.6421231590211391448974609375" lon="-5.5218507908284664154052734375">
        <ele>47</ele>
        <time>2022-03-20T10:20:44.000Z</time>
      </trkpt>
      <trkpt lat="37.64218577183783054351806640625" lon="-5.52186495624482631683349609375">
        <ele>46.799999237060546875</ele>
        <time>2022-03-20T10:20:47.000Z</time>
      </trkpt>
      <trkpt lat="37.6422009430825710296630859375" lon="-5.521866381168365478515625">
        <ele>46.59999847412109375</ele>
        <time>2022-03-20T10:20:48.000Z</time>
      </trkpt>
      <trkpt lat="37.64221108518540859222412109375" lon="-5.52186906337738037109375">
        <ele>46.59999847412109375</ele>
        <time>2022-03-20T10:20:49.000Z</time>
      </trkpt>
      <trkpt lat="37.64226305298507213592529296875" lon="-5.52186294458806514739990234375">
        <ele>45.40000152587890625</ele>
        <time>2022-03-20T10:20:53.000Z</time>
      </trkpt>
      <trkpt lat="37.64230529777705669403076171875" lon="-5.5218491144478321075439453125">
        <ele>43.799999237060546875</ele>
        <time>2022-03-20T10:20:55.000Z</time>
      </trkpt>
      <trkpt lat="37.64234117232263088226318359375" lon="-5.5218246392905712127685546875">
        <ele>42.40000152587890625</ele>
        <time>2022-03-20T10:20:57.000Z</time>
      </trkpt>
      <trkpt lat="37.6423581875860691070556640625" lon="-5.52181340754032135009765625">
        <ele>41</ele>
        <time>2022-03-20T10:20:59.000Z</time>
      </trkpt>
      <trkpt lat="37.64237922616302967071533203125" lon="-5.5217904411256313323974609375">
        <ele>40.59999847412109375</ele>
        <time>2022-03-20T10:21:01.000Z</time>
      </trkpt>
      <trkpt lat="37.64238827861845493316650390625" lon="-5.5217797122895717620849609375">
        <ele>40.59999847412109375</ele>
        <time>2022-03-20T10:21:02.000Z</time>
      </trkpt>
      <trkpt lat="37.64251098968088626861572265625" lon="-5.5217740125954151153564453125">
        <ele>40.40000152587890625</ele>
        <time>2022-03-20T10:21:08.000Z</time>
      </trkpt>
      <trkpt lat="37.642609812319278717041015625" lon="-5.52178331650793552398681640625">
        <ele>40.200000762939453125</ele>
        <time>2022-03-20T10:21:12.000Z</time>
      </trkpt>
      <trkpt lat="37.64265842735767364501953125" lon="-5.52178767509758472442626953125">
        <ele>40</ele>
        <time>2022-03-20T10:21:14.000Z</time>
      </trkpt>
      <trkpt lat="37.64268390834331512451171875" lon="-5.52178482525050640106201171875">
        <ele>39.799999237060546875</ele>
        <time>2022-03-20T10:21:15.000Z</time>
      </trkpt>
      <trkpt lat="37.64273176901042461395263671875" lon="-5.52178859710693359375">
        <ele>39.799999237060546875</ele>
        <time>2022-03-20T10:21:17.000Z</time>
      </trkpt>
      <trkpt lat="37.64286504127085208892822265625" lon="-5.5217636190354824066162109375">
        <ele>39</ele>
        <time>2022-03-20T10:21:22.000Z</time>
      </trkpt>
      <trkpt lat="37.64289102517068386077880859375" lon="-5.52176152355968952178955078125">
        <ele>38.799999237060546875</ele>
        <time>2022-03-20T10:21:23.000Z</time>
      </trkpt>
      <trkpt lat="37.64302899129688739776611328125" lon="-5.52171307615935802459716796875">
        <ele>37.40000152587890625</ele>
        <time>2022-03-20T10:21:29.000Z</time>
      </trkpt>
      <trkpt lat="37.64314130879938602447509765625" lon="-5.52170251496136188507080078125">
        <ele>36.40000152587890625</ele>
        <time>2022-03-20T10:21:34.000Z</time>
      </trkpt>
      <trkpt lat="37.64318657107651233673095703125" lon="-5.52168910391628742218017578125">
        <ele>36</ele>
        <time>2022-03-20T10:21:36.000Z</time>
      </trkpt>
      <trkpt lat="37.6432537101209163665771484375" lon="-5.52166932262480258941650390625">
        <ele>35.200000762939453125</ele>
        <time>2022-03-20T10:21:39.000Z</time>
      </trkpt>
      <trkpt lat="37.643362842500209808349609375" lon="-5.52168508060276508331298828125">
        <ele>34.799999237060546875</ele>
        <time>2022-03-20T10:21:44.000Z</time>
      </trkpt>
      <trkpt lat="37.64345772564411163330078125" lon="-5.5216787941753864288330078125">
        <ele>34.799999237060546875</ele>
        <time>2022-03-20T10:21:48.000Z</time>
      </trkpt>
      <trkpt lat="37.64351832680404186248779296875" lon="-5.52160914056003093719482421875">
        <ele>34.200000762939453125</ele>
        <time>2022-03-20T10:21:51.000Z</time>
      </trkpt>
      <trkpt lat="37.64352335594594478607177734375" lon="-5.5215778760612010955810546875">
        <ele>34</ele>
        <time>2022-03-20T10:21:52.000Z</time>
      </trkpt>
      <trkpt lat="37.6435024850070476531982421875" lon="-5.52148542366921901702880859375">
        <ele>33.799999237060546875</ele>
        <time>2022-03-20T10:21:55.000Z</time>
      </trkpt>
      <trkpt lat="37.64342025853693485260009765625" lon="-5.52133186720311641693115234375">
        <ele>33.799999237060546875</ele>
        <time>2022-03-20T10:22:01.000Z</time>
      </trkpt>
      <trkpt lat="37.64336057938635349273681640625" lon="-5.52126581780612468719482421875">
        <ele>34.40000152587890625</ele>
        <time>2022-03-20T10:22:04.000Z</time>
      </trkpt>
      <trkpt lat="37.64326267875730991363525390625" lon="-5.52121083252131938934326171875">
        <ele>33.799999237060546875</ele>
        <time>2022-03-20T10:22:08.000Z</time>
      </trkpt>
      <trkpt lat="37.64310928992927074432373046875" lon="-5.5210920609533786773681640625">
        <ele>34.40000152587890625</ele>
        <time>2022-03-20T10:22:15.000Z</time>
      </trkpt>
      <trkpt lat="37.6430679671466350555419921875" lon="-5.521055348217487335205078125">
        <ele>34.59999847412109375</ele>
        <time>2022-03-20T10:22:17.000Z</time>
      </trkpt>
      <trkpt lat="37.64304810203611850738525390625" lon="-5.5210394226014614105224609375">
        <ele>34.59999847412109375</ele>
        <time>2022-03-20T10:22:18.000Z</time>
      </trkpt>
      <trkpt lat="37.64302966184914112091064453125" lon="-5.521018803119659423828125">
        <ele>35.200000762939453125</ele>
        <time>2022-03-20T10:22:19.000Z</time>
      </trkpt>
      <trkpt lat="37.64301122166216373443603515625" lon="-5.5210013687610626220703125">
        <ele>35.59999847412109375</ele>
        <time>2022-03-20T10:22:20.000Z</time>
      </trkpt>
      <trkpt lat="37.64295958913862705230712890625" lon="-5.5209616385400295257568359375">
        <ele>36.59999847412109375</ele>
        <time>2022-03-20T10:22:23.000Z</time>
      </trkpt>
      <trkpt lat="37.64287962578237056732177734375" lon="-5.52086465992033481597900390625">
        <ele>37.59999847412109375</ele>
        <time>2022-03-20T10:22:28.000Z</time>
      </trkpt>
      <trkpt lat="37.6428711600601673126220703125" lon="-5.52084219641983509063720703125">
        <ele>37.59999847412109375</ele>
        <time>2022-03-20T10:22:29.000Z</time>
      </trkpt>
      <trkpt lat="37.64283553697168827056884765625" lon="-5.5207883007824420928955078125">
        <ele>38.200000762939453125</ele>
        <time>2022-03-20T10:22:32.000Z</time>
      </trkpt>
      <trkpt lat="37.64279882423579692840576171875" lon="-5.52070909179747104644775390625">
        <ele>39.40000152587890625</ele>
        <time>2022-03-20T10:22:36.000Z</time>
      </trkpt>
      <trkpt lat="37.64276563189923763275146484375" lon="-5.52059677429497241973876953125">
        <ele>39.59999847412109375</ele>
        <time>2022-03-20T10:22:40.000Z</time>
      </trkpt>
      <trkpt lat="37.64275087974965572357177734375" lon="-5.520549081265926361083984375">
        <ele>39.59999847412109375</ele>
        <time>2022-03-20T10:22:42.000Z</time>
      </trkpt>
      <trkpt lat="37.6427457667887210845947265625" lon="-5.520384795963764190673828125">
        <ele>39.799999237060546875</ele>
        <time>2022-03-20T10:22:48.000Z</time>
      </trkpt>
      <trkpt lat="37.642726488411426544189453125" lon="-5.52018136717379093170166015625">
        <ele>39.799999237060546875</ele>
        <time>2022-03-20T10:22:55.000Z</time>
      </trkpt>
      <trkpt lat="37.6426760293543338775634765625" lon="-5.520026050508022308349609375">
        <ele>40.200000762939453125</ele>
        <time>2022-03-20T10:23:01.000Z</time>
      </trkpt>
      <trkpt lat="37.64266354031860828399658203125" lon="-5.5199105478823184967041015625">
        <ele>40.40000152587890625</ele>
        <time>2022-03-20T10:23:06.000Z</time>
      </trkpt>
      <trkpt lat="37.64266672544181346893310546875" lon="-5.5198455043137073516845703125">
        <ele>40.799999237060546875</ele>
        <time>2022-03-20T10:23:09.000Z</time>
      </trkpt>
      <trkpt lat="37.642667479813098907470703125" lon="-5.5198314227163791656494140625">
        <ele>41</ele>
        <time>2022-03-20T10:23:10.000Z</time>
      </trkpt>
      <trkpt lat="37.6426673121750354766845703125" lon="-5.519817173480987548828125">
        <ele>41</ele>
        <time>2022-03-20T10:23:11.000Z</time>
      </trkpt>
      <trkpt lat="37.6426636241376399993896484375" lon="-5.51981155760586261749267578125">
        <ele>40.799999237060546875</ele>
        <time>2022-03-20T10:23:12.000Z</time>
      </trkpt>
      <trkpt lat="37.6426626183092594146728515625" lon="-5.51982413046061992645263671875">
        <ele>41</ele>
        <time>2022-03-20T10:23:14.000Z</time>
      </trkpt>
      <trkpt lat="37.64272288419306278228759765625" lon="-5.51990677602589130401611328125">
        <ele>40.40000152587890625</ele>
        <time>2022-03-20T10:23:20.000Z</time>
      </trkpt>
      <trkpt lat="37.6427742652595043182373046875" lon="-5.51993125118315219879150390625">
        <ele>40.200000762939453125</ele>
        <time>2022-03-20T10:23:23.000Z</time>
      </trkpt>
      <trkpt lat="37.64284056611359119415283203125" lon="-5.5199621804058551788330078125">
        <ele>39.799999237060546875</ele>
        <time>2022-03-20T10:23:27.000Z</time>
      </trkpt>
      <trkpt lat="37.6428906060755252838134765625" lon="-5.51998388953506946563720703125">
        <ele>39.799999237060546875</ele>
        <time>2022-03-20T10:23:30.000Z</time>
      </trkpt>
      <trkpt lat="37.64295036904513835906982421875" lon="-5.5199953727424144744873046875">
        <ele>39.200000762939453125</ele>
        <time>2022-03-20T10:23:34.000Z</time>
      </trkpt>
      <trkpt lat="37.6430387981235980987548828125" lon="-5.52001171745359897613525390625">
        <ele>38</ele>
        <time>2022-03-20T10:23:39.000Z</time>
      </trkpt>
      <trkpt lat="37.6430944539606571197509765625" lon="-5.52002378739416599273681640625">
        <ele>36.799999237060546875</ele>
        <time>2022-03-20T10:23:42.000Z</time>
      </trkpt>
      <trkpt lat="37.64316377229988574981689453125" lon="-5.52003468386828899383544921875">
        <ele>35.799999237060546875</ele>
        <time>2022-03-20T10:23:46.000Z</time>
      </trkpt>
      <trkpt lat="37.64324759133160114288330078125" lon="-5.52005077712237834930419921875">
        <ele>35.200000762939453125</ele>
        <time>2022-03-20T10:23:51.000Z</time>
      </trkpt>
      <trkpt lat="37.6433108747005462646484375" lon="-5.52006586454808712005615234375">
        <ele>35.200000762939453125</ele>
        <time>2022-03-20T10:23:55.000Z</time>
      </trkpt>
      <trkpt lat="37.6433358527719974517822265625" lon="-5.5200718156993389129638671875">
        <ele>34.799999237060546875</ele>
        <time>2022-03-20T10:23:57.000Z</time>
      </trkpt>
      <trkpt lat="37.64334733597934246063232421875" lon="-5.52007458172738552093505859375">
        <ele>34.59999847412109375</ele>
        <time>2022-03-20T10:23:58.000Z</time>
      </trkpt>
      <trkpt lat="37.64344523660838603973388671875" lon="-5.52009905688464641571044921875">
        <ele>34.200000762939453125</ele>
        <time>2022-03-20T10:24:04.000Z</time>
      </trkpt>
      <trkpt lat="37.6436010561883449554443359375" lon="-5.52012386731803417205810546875">
        <ele>34.59999847412109375</ele>
        <time>2022-03-20T10:24:13.000Z</time>
      </trkpt>
      <trkpt lat="37.6436161436140537261962890625" lon="-5.52012629806995391845703125">
        <ele>34.799999237060546875</ele>
        <time>2022-03-20T10:24:14.000Z</time>
      </trkpt>
      <trkpt lat="37.6436935923993587493896484375" lon="-5.52014180459082126617431640625">
        <ele>35.59999847412109375</ele>
        <time>2022-03-20T10:24:19.000Z</time>
      </trkpt>
      <trkpt lat="37.6437636651098728179931640625" lon="-5.52014197222888469696044921875">
        <ele>35.200000762939453125</ele>
        <time>2022-03-20T10:24:24.000Z</time>
      </trkpt>
      <trkpt lat="37.64375788159668445587158203125" lon="-5.5201355181634426116943359375">
        <ele>35.200000762939453125</ele>
        <time>2022-03-20T10:24:25.000Z</time>
      </trkpt>
      <trkpt lat="37.64368177391588687896728515625" lon="-5.5201204307377338409423828125">
        <ele>34.799999237060546875</ele>
        <time>2022-03-20T10:24:30.000Z</time>
      </trkpt>
      <trkpt lat="37.64366920106112957000732421875" lon="-5.5201177485287189483642578125">
        <ele>34.799999237060546875</ele>
        <time>2022-03-20T10:24:31.000Z</time>
      </trkpt>
      <trkpt lat="37.643617652356624603271484375" lon="-5.52010861225426197052001953125">
        <ele>34.799999237060546875</ele>
        <time>2022-03-20T10:24:34.000Z</time>
      </trkpt>
      <trkpt lat="37.64352343976497650146484375" lon="-5.52008413709700107574462890625">
        <ele>35.40000152587890625</ele>
        <time>2022-03-20T10:24:40.000Z</time>
      </trkpt>
      <trkpt lat="37.64343735761940479278564453125" lon="-5.520069636404514312744140625">
        <ele>34.799999237060546875</ele>
        <time>2022-03-20T10:24:45.000Z</time>
      </trkpt>
      <trkpt lat="37.643405757844448089599609375" lon="-5.52006368525326251983642578125">
        <ele>34.40000152587890625</ele>
        <time>2022-03-20T10:24:47.000Z</time>
      </trkpt>
      <trkpt lat="37.64334976673126220703125" lon="-5.520053207874298095703125">
        <ele>34</ele>
        <time>2022-03-20T10:24:50.000Z</time>
      </trkpt>
      <trkpt lat="37.6432097889482975006103515625" lon="-5.52002529613673686981201171875">
        <ele>35.200000762939453125</ele>
        <time>2022-03-20T10:24:58.000Z</time>
      </trkpt>
      <trkpt lat="37.64315865933895111083984375" lon="-5.5200196802616119384765625">
        <ele>35.40000152587890625</ele>
        <time>2022-03-20T10:25:01.000Z</time>
      </trkpt>
      <trkpt lat="37.6430428214371204376220703125" lon="-5.51999746821820735931396484375">
        <ele>36.200000762939453125</ele>
        <time>2022-03-20T10:25:08.000Z</time>
      </trkpt>
      <trkpt lat="37.6429761014878749847412109375" lon="-5.51998137496411800384521484375">
        <ele>36.59999847412109375</ele>
        <time>2022-03-20T10:25:12.000Z</time>
      </trkpt>
      <trkpt lat="37.64293192885816097259521484375" lon="-5.51996980793774127960205078125">
        <ele>38</ele>
        <time>2022-03-20T10:25:17.000Z</time>
      </trkpt>
      <trkpt lat="37.642913572490215301513671875" lon="-5.519965700805187225341796875">
        <ele>38.40000152587890625</ele>
        <time>2022-03-20T10:25:19.000Z</time>
      </trkpt>
      <trkpt lat="37.64289119280874729156494140625" lon="-5.5199571512639522552490234375">
        <ele>38.799999237060546875</ele>
        <time>2022-03-20T10:25:21.000Z</time>
      </trkpt>
      <trkpt lat="37.6428627781569957733154296875" lon="-5.51994885317981243133544921875">
        <ele>39.200000762939453125</ele>
        <time>2022-03-20T10:25:23.000Z</time>
      </trkpt>
      <trkpt lat="37.64284961856901645660400390625" lon="-5.51994390785694122314453125">
        <ele>39.40000152587890625</ele>
        <time>2022-03-20T10:25:24.000Z</time>
      </trkpt>
      <trkpt lat="37.64283545315265655517578125" lon="-5.51994047127664089202880859375">
        <ele>39.59999847412109375</ele>
        <time>2022-03-20T10:25:25.000Z</time>
      </trkpt>
      <trkpt lat="37.6427870057523250579833984375" lon="-5.51991901360452175140380859375">
        <ele>40.40000152587890625</ele>
        <time>2022-03-20T10:25:29.000Z</time>
      </trkpt>
      <trkpt lat="37.64272355474531650543212890625" lon="-5.5198666267096996307373046875">
        <ele>41</ele>
        <time>2022-03-20T10:25:34.000Z</time>
      </trkpt>
      <trkpt lat="37.64270670711994171142578125" lon="-5.51984659396111965179443359375">
        <ele>40.59999847412109375</ele>
        <time>2022-03-20T10:25:36.000Z</time>
      </trkpt>
      <trkpt lat="37.64269203878939151763916015625" lon="-5.5197294987738132476806640625">
        <ele>40.799999237060546875</ele>
        <time>2022-03-20T10:25:41.000Z</time>
      </trkpt>
      <trkpt lat="37.6427320204675197601318359375" lon="-5.5195920355618000030517578125">
        <ele>41.40000152587890625</ele>
        <time>2022-03-20T10:25:45.000Z</time>
      </trkpt>
      <trkpt lat="37.64274450950324535369873046875" lon="-5.5195554904639720916748046875">
        <ele>41.40000152587890625</ele>
        <time>2022-03-20T10:25:46.000Z</time>
      </trkpt>
      <trkpt lat="37.6427816413342952728271484375" lon="-5.51943873055279254913330078125">
        <ele>41.59999847412109375</ele>
        <time>2022-03-20T10:25:49.000Z</time>
      </trkpt>
      <trkpt lat="37.6427910290658473968505859375" lon="-5.51931895315647125244140625">
        <ele>41.799999237060546875</ele>
        <time>2022-03-20T10:25:52.000Z</time>
      </trkpt>
      <trkpt lat="37.64280418865382671356201171875" lon="-5.51919867284595966339111328125">
        <ele>42</ele>
        <time>2022-03-20T10:25:55.000Z</time>
      </trkpt>
      <trkpt lat="37.6428307592868804931640625" lon="-5.51908367313444614410400390625">
        <ele>42</ele>
        <time>2022-03-20T10:25:58.000Z</time>
      </trkpt>
      <trkpt lat="37.6428852416574954986572265625" lon="-5.518915951251983642578125">
        <ele>42.200000762939453125</ele>
        <time>2022-03-20T10:26:03.000Z</time>
      </trkpt>
      <trkpt lat="37.642933689057826995849609375" lon="-5.51877639256417751312255859375">
        <ele>42.200000762939453125</ele>
        <time>2022-03-20T10:26:07.000Z</time>
      </trkpt>
      <trkpt lat="37.64295288361608982086181640625" lon="-5.518708415329456329345703125">
        <ele>42.59999847412109375</ele>
        <time>2022-03-20T10:26:09.000Z</time>
      </trkpt>
      <trkpt lat="37.6429727487266063690185546875" lon="-5.5186143703758716583251953125">
        <ele>42.799999237060546875</ele>
        <time>2022-03-20T10:26:12.000Z</time>
      </trkpt>
      <trkpt lat="37.6430703140795230865478515625" lon="-5.5183863826096057891845703125">
        <ele>43.40000152587890625</ele>
        <time>2022-03-20T10:26:19.000Z</time>
      </trkpt>
      <trkpt lat="37.6431055180728435516357421875" lon="-5.51831471733748912811279296875">
        <ele>43.59999847412109375</ele>
        <time>2022-03-20T10:26:21.000Z</time>
      </trkpt>
      <trkpt lat="37.643172405660152435302734375" lon="-5.5181171558797359466552734375">
        <ele>43.40000152587890625</ele>
        <time>2022-03-20T10:26:27.000Z</time>
      </trkpt>
      <trkpt lat="37.6431970484554767608642578125" lon="-5.518014393746852874755859375">
        <ele>43.40000152587890625</ele>
        <time>2022-03-20T10:26:30.000Z</time>
      </trkpt>
      <trkpt lat="37.64320517890155315399169921875" lon="-5.51798765547573566436767578125">
        <ele>43.40000152587890625</ele>
        <time>2022-03-20T10:26:31.000Z</time>
      </trkpt>
      <trkpt lat="37.64320936985313892364501953125" lon="-5.5179568938910961151123046875">
        <ele>43.40000152587890625</ele>
        <time>2022-03-20T10:26:32.000Z</time>
      </trkpt>
      <trkpt lat="37.643266618251800537109375" lon="-5.51777911372482776641845703125">
        <ele>43.799999237060546875</ele>
        <time>2022-03-20T10:26:37.000Z</time>
      </trkpt>
      <trkpt lat="37.64329503290355205535888671875" lon="-5.517687499523162841796875">
        <ele>44</ele>
        <time>2022-03-20T10:26:40.000Z</time>
      </trkpt>
      <trkpt lat="37.64337725937366485595703125" lon="-5.51752455532550811767578125">
        <ele>44.200000762939453125</ele>
        <time>2022-03-20T10:26:46.000Z</time>
      </trkpt>
      <trkpt lat="37.6433980464935302734375" lon="-5.517501421272754669189453125">
        <ele>44.200000762939453125</ele>
        <time>2022-03-20T10:26:47.000Z</time>
      </trkpt>
      <trkpt lat="37.64350600540637969970703125" lon="-5.51744082011282444000244140625">
        <ele>44.59999847412109375</ele>
        <time>2022-03-20T10:26:51.000Z</time>
      </trkpt>
      <trkpt lat="37.6435594819486141204833984375" lon="-5.51741986535489559173583984375">
        <ele>44.40000152587890625</ele>
        <time>2022-03-20T10:26:53.000Z</time>
      </trkpt>
      <trkpt lat="37.6436922512948513031005859375" lon="-5.517386086285114288330078125">
        <ele>43.40000152587890625</ele>
        <time>2022-03-20T10:26:58.000Z</time>
      </trkpt>
      <trkpt lat="37.6437130384147167205810546875" lon="-5.517399497330188751220703125">
        <ele>42.59999847412109375</ele>
        <time>2022-03-20T10:26:59.000Z</time>
      </trkpt>
      <trkpt lat="37.64372552745044231414794921875" lon="-5.5174234695732593536376953125">
        <ele>42.200000762939453125</ele>
        <time>2022-03-20T10:27:00.000Z</time>
      </trkpt>
      <trkpt lat="37.6437251083552837371826171875" lon="-5.51745808683335781097412109375">
        <ele>41.799999237060546875</ele>
        <time>2022-03-20T10:27:01.000Z</time>
      </trkpt>
      <trkpt lat="37.64369267039000988006591796875" lon="-5.51757258363068103790283203125">
        <ele>41.200000762939453125</ele>
        <time>2022-03-20T10:27:04.000Z</time>
      </trkpt>
      <trkpt lat="37.64365813694894313812255859375" lon="-5.5176432430744171142578125">
        <ele>41</ele>
        <time>2022-03-20T10:27:06.000Z</time>
      </trkpt>
      <trkpt lat="37.64353961683809757232666015625" lon="-5.51786025054752826690673828125">
        <ele>40.200000762939453125</ele>
        <time>2022-03-20T10:27:13.000Z</time>
      </trkpt>
      <trkpt lat="37.64350156299769878387451171875" lon="-5.51800676621496677398681640625">
        <ele>40.200000762939453125</ele>
        <time>2022-03-20T10:27:18.000Z</time>
      </trkpt>
      <trkpt lat="37.6434857212007045745849609375" lon="-5.5180594883859157562255859375">
        <ele>40.200000762939453125</ele>
        <time>2022-03-20T10:27:21.000Z</time>
      </trkpt>
      <trkpt lat="37.64347909949719905853271484375" lon="-5.51809628494083881378173828125">
        <ele>40.59999847412109375</ele>
        <time>2022-03-20T10:27:27.000Z</time>
      </trkpt>
      <trkpt lat="37.6434508524835109710693359375" lon="-5.51819468848407268524169921875">
        <ele>40</ele>
        <time>2022-03-20T10:27:31.000Z</time>
      </trkpt>
      <trkpt lat="37.64338673092424869537353515625" lon="-5.51837339065968990325927734375">
        <ele>39.799999237060546875</ele>
        <time>2022-03-20T10:27:37.000Z</time>
      </trkpt>
      <trkpt lat="37.6433940231800079345703125" lon="-5.5184658430516719818115234375">
        <ele>39.59999847412109375</ele>
        <time>2022-03-20T10:27:40.000Z</time>
      </trkpt>
      <trkpt lat="37.64342931099236011505126953125" lon="-5.5185181461274623870849609375">
        <ele>39.200000762939453125</ele>
        <time>2022-03-20T10:27:42.000Z</time>
      </trkpt>
      <trkpt lat="37.64344925992190837860107421875" lon="-5.51853767596185207366943359375">
        <ele>38.59999847412109375</ele>
        <time>2022-03-20T10:27:43.000Z</time>
      </trkpt>
      <trkpt lat="37.6435011439025402069091796875" lon="-5.5185929127037525177001953125">
        <ele>37.59999847412109375</ele>
        <time>2022-03-20T10:27:47.000Z</time>
      </trkpt>
      <trkpt lat="37.64350541867315769195556640625" lon="-5.51861730404198169708251953125">
        <ele>37</ele>
        <time>2022-03-20T10:27:48.000Z</time>
      </trkpt>
      <trkpt lat="37.64350072480738162994384765625" lon="-5.51868452690541744232177734375">
        <ele>36.200000762939453125</ele>
        <time>2022-03-20T10:27:50.000Z</time>
      </trkpt>
      <trkpt lat="37.64349234290421009063720703125" lon="-5.51871973089873790740966796875">
        <ele>36</ele>
        <time>2022-03-20T10:27:51.000Z</time>
      </trkpt>
      <trkpt lat="37.6434625871479511260986328125" lon="-5.51889340393245220184326171875">
        <ele>35.799999237060546875</ele>
        <time>2022-03-20T10:27:57.000Z</time>
      </trkpt>
      <trkpt lat="37.64353006146848201751708984375" lon="-5.51910127513110637664794921875">
        <ele>35.799999237060546875</ele>
        <time>2022-03-20T10:28:04.000Z</time>
      </trkpt>
      <trkpt lat="37.64358487911522388458251953125" lon="-5.5191548354923725128173828125">
        <ele>35.799999237060546875</ele>
        <time>2022-03-20T10:28:07.000Z</time>
      </trkpt>
      <trkpt lat="37.6436406187713146209716796875" lon="-5.5191719345748424530029296875">
        <ele>36</ele>
        <time>2022-03-20T10:28:09.000Z</time>
      </trkpt>
      <trkpt lat="37.64382007531821727752685546875" lon="-5.5191471241414546966552734375">
        <ele>36.40000152587890625</ele>
        <time>2022-03-20T10:28:16.000Z</time>
      </trkpt>
      <trkpt lat="37.64384438283741474151611328125" lon="-5.519133545458316802978515625">
        <ele>36.200000762939453125</ele>
        <time>2022-03-20T10:28:17.000Z</time>
      </trkpt>
      <trkpt lat="37.643999867141246795654296875" lon="-5.5190482176840305328369140625">
        <ele>37</ele>
        <time>2022-03-20T10:28:24.000Z</time>
      </trkpt>
      <trkpt lat="37.64407304115593433380126953125" lon="-5.51902818493545055389404296875">
        <ele>36.59999847412109375</ele>
        <time>2022-03-20T10:28:29.000Z</time>
      </trkpt>
      <trkpt lat="37.6441048085689544677734375" lon="-5.51900320686399936676025390625">
        <ele>35.799999237060546875</ele>
        <time>2022-03-20T10:28:32.000Z</time>
      </trkpt>
      <trkpt lat="37.64412224292755126953125" lon="-5.51898510195314884185791015625">
        <ele>35.40000152587890625</ele>
        <time>2022-03-20T10:28:34.000Z</time>
      </trkpt>
      <trkpt lat="37.64413322322070598602294921875" lon="-5.51897923462092876434326171875">
        <ele>35.40000152587890625</ele>
        <time>2022-03-20T10:28:35.000Z</time>
      </trkpt>
      <trkpt lat="37.64414998702704906463623046875" lon="-5.51897722296416759490966796875">
        <ele>35.40000152587890625</ele>
        <time>2022-03-20T10:28:37.000Z</time>
      </trkpt>
      <trkpt lat="37.644170857965946197509765625" lon="-5.51896154880523681640625">
        <ele>35.40000152587890625</ele>
        <time>2022-03-20T10:28:40.000Z</time>
      </trkpt>
      <trkpt lat="37.6441745460033416748046875" lon="-5.5189603753387928009033203125">
        <ele>35.40000152587890625</ele>
        <time>2022-03-20T10:28:41.000Z</time>
      </trkpt>
      <trkpt lat="37.6441807486116886138916015625" lon="-5.51895341835916042327880859375">
        <ele>35</ele>
        <time>2022-03-20T10:28:43.000Z</time>
      </trkpt>
      <trkpt lat="37.644183933734893798828125" lon="-5.518951155245304107666015625">
        <ele>34.799999237060546875</ele>
        <time>2022-03-20T10:28:44.000Z</time>
      </trkpt>
      <trkpt lat="37.64419206418097019195556640625" lon="-5.51895258016884326934814453125">
        <ele>35</ele>
        <time>2022-03-20T10:28:46.000Z</time>
      </trkpt>
      <trkpt lat="37.644200362265110015869140625" lon="-5.51895677112042903900146484375">
        <ele>36</ele>
        <time>2022-03-20T10:28:50.000Z</time>
      </trkpt>
      <trkpt lat="37.644194997847080230712890625" lon="-5.5189623869955539703369140625">
        <ele>36.40000152587890625</ele>
        <time>2022-03-20T10:28:53.000Z</time>
      </trkpt>
      <trkpt lat="37.6442018710076808929443359375" lon="-5.51897135563194751739501953125">
        <ele>36.59999847412109375</ele>
        <time>2022-03-20T10:28:56.000Z</time>
      </trkpt>
      <trkpt lat="37.6442095823585987091064453125" lon="-5.5189590342342853546142578125">
        <ele>36.799999237060546875</ele>
        <time>2022-03-20T10:29:01.000Z</time>
      </trkpt>
      <trkpt lat="37.644213773310184478759765625" lon="-5.518958531320095062255859375">
        <ele>36.799999237060546875</ele>
        <time>2022-03-20T10:29:02.000Z</time>
      </trkpt>
      <trkpt lat="37.644222490489482879638671875" lon="-5.518969930708408355712890625">
        <ele>36.799999237060546875</ele>
        <time>2022-03-20T10:29:05.000Z</time>
      </trkpt>
      <trkpt lat="37.64427403919398784637451171875" lon="-5.5189727805554866790771484375">
        <ele>37</ele>
        <time>2022-03-20T10:29:08.000Z</time>
      </trkpt>
      <trkpt lat="37.64428342692553997039794921875" lon="-5.51897672004997730255126953125">
        <ele>37.200000762939453125</ele>
        <time>2022-03-20T10:29:09.000Z</time>
      </trkpt>
      <trkpt lat="37.644353248178958892822265625" lon="-5.5189575254917144775390625">
        <ele>37.40000152587890625</ele>
        <time>2022-03-20T10:29:13.000Z</time>
      </trkpt>
      <trkpt lat="37.64445441775023937225341796875" lon="-5.51898761652410030364990234375">
        <ele>38.40000152587890625</ele>
        <time>2022-03-20T10:29:19.000Z</time>
      </trkpt>
      <trkpt lat="37.6445133425295352935791015625" lon="-5.5189643986523151397705078125">
        <ele>39.59999847412109375</ele>
        <time>2022-03-20T10:29:22.000Z</time>
      </trkpt>
      <trkpt lat="37.644572518765926361083984375" lon="-5.51898208446800708770751953125">
        <ele>40.799999237060546875</ele>
        <time>2022-03-20T10:29:26.000Z</time>
      </trkpt>
      <trkpt lat="37.64459188096225261688232421875" lon="-5.51906204782426357269287109375">
        <ele>41</ele>
        <time>2022-03-20T10:29:31.000Z</time>
      </trkpt>
      <trkpt lat="37.6445881091058254241943359375" lon="-5.51920630037784576416015625">
        <ele>39.59999847412109375</ele>
        <time>2022-03-20T10:29:36.000Z</time>
      </trkpt>
      <trkpt lat="37.64459908939898014068603515625" lon="-5.51925315521657466888427734375">
        <ele>40</ele>
        <time>2022-03-20T10:29:39.000Z</time>
      </trkpt>
      <trkpt lat="37.64459858648478984832763671875" lon="-5.519290454685688018798828125">
        <ele>40.799999237060546875</ele>
        <time>2022-03-20T10:29:41.000Z</time>
      </trkpt>
      <trkpt lat="37.64460898004472255706787109375" lon="-5.51932322792708873748779296875">
        <ele>41</ele>
        <time>2022-03-20T10:29:43.000Z</time>
      </trkpt>
      <trkpt lat="37.6446327008306980133056640625" lon="-5.51935248076915740966796875">
        <ele>40.59999847412109375</ele>
        <time>2022-03-20T10:29:45.000Z</time>
      </trkpt>
      <trkpt lat="37.64464066363871097564697265625" lon="-5.51937435753643512725830078125">
        <ele>40.40000152587890625</ele>
        <time>2022-03-20T10:29:46.000Z</time>
      </trkpt>
      <trkpt lat="37.6446508057415485382080078125" lon="-5.51940553821623325347900390625">
        <ele>40.200000762939453125</ele>
        <time>2022-03-20T10:29:48.000Z</time>
      </trkpt>
      <trkpt lat="37.64469196088612079620361328125" lon="-5.51947410218417644500732421875">
        <ele>39.40000152587890625</ele>
        <time>2022-03-20T10:29:51.000Z</time>
      </trkpt>
      <trkpt lat="37.6447423361241817474365234375" lon="-5.5195491202175617218017578125">
        <ele>37.40000152587890625</ele>
        <time>2022-03-20T10:29:54.000Z</time>
      </trkpt>
      <trkpt lat="37.64473713934421539306640625" lon="-5.51957250572741031646728515625">
        <ele>37</ele>
        <time>2022-03-20T10:29:55.000Z</time>
      </trkpt>
      <trkpt lat="37.64471392147243022918701171875" lon="-5.51962698809802532196044921875">
        <ele>36.40000152587890625</ele>
        <time>2022-03-20T10:29:57.000Z</time>
      </trkpt>
      <trkpt lat="37.64467184431850910186767578125" lon="-5.5197372101247310638427734375">
        <ele>36</ele>
        <time>2022-03-20T10:30:01.000Z</time>
      </trkpt>
      <trkpt lat="37.64460629783570766448974609375" lon="-5.5198642797768115997314453125">
        <ele>36</ele>
        <time>2022-03-20T10:30:06.000Z</time>
      </trkpt>
      <trkpt lat="37.644526250660419464111328125" lon="-5.51998305134475231170654296875">
        <ele>36</ele>
        <time>2022-03-20T10:30:11.000Z</time>
      </trkpt>
      <trkpt lat="37.64449330978095531463623046875" lon="-5.52006016485393047332763671875">
        <ele>36.200000762939453125</ele>
        <time>2022-03-20T10:30:14.000Z</time>
      </trkpt>
      <trkpt lat="37.64449196867644786834716796875" lon="-5.5201539583504199981689453125">
        <ele>36.200000762939453125</ele>
        <time>2022-03-20T10:30:17.000Z</time>
      </trkpt>
      <trkpt lat="37.64450001530349254608154296875" lon="-5.520294271409511566162109375">
        <ele>37.200000762939453125</ele>
        <time>2022-03-20T10:30:22.000Z</time>
      </trkpt>
      <trkpt lat="37.64459255151450634002685546875" lon="-5.52047037519514560699462890625">
        <ele>37.200000762939453125</ele>
        <time>2022-03-20T10:30:29.000Z</time>
      </trkpt>
      <trkpt lat="37.64462188817560672760009765625" lon="-5.5205230973660945892333984375">
        <ele>37.200000762939453125</ele>
        <time>2022-03-20T10:30:31.000Z</time>
      </trkpt>
      <trkpt lat="37.6446814835071563720703125" lon="-5.5206079222261905670166015625">
        <ele>37.40000152587890625</ele>
        <time>2022-03-20T10:30:35.000Z</time>
      </trkpt>
      <trkpt lat="37.6446933858096599578857421875" lon="-5.52063080482184886932373046875">
        <ele>37.40000152587890625</ele>
        <time>2022-03-20T10:30:36.000Z</time>
      </trkpt>
      <trkpt lat="37.64472884126007556915283203125" lon="-5.5207197368144989013671875">
        <ele>38</ele>
        <time>2022-03-20T10:30:40.000Z</time>
      </trkpt>
      <trkpt lat="37.64473068527877330780029296875" lon="-5.5207465589046478271484375">
        <ele>38</ele>
        <time>2022-03-20T10:30:41.000Z</time>
      </trkpt>
      <trkpt lat="37.64472716487944126129150390625" lon="-5.5208082497119903564453125">
        <ele>38.799999237060546875</ele>
        <time>2022-03-20T10:30:43.000Z</time>
      </trkpt>
      <trkpt lat="37.64472733251750469207763671875" lon="-5.52090371958911418914794921875">
        <ele>39.40000152587890625</ele>
        <time>2022-03-20T10:30:46.000Z</time>
      </trkpt>
      <trkpt lat="37.64471475966274738311767578125" lon="-5.52099533379077911376953125">
        <ele>39.40000152587890625</ele>
        <time>2022-03-20T10:30:49.000Z</time>
      </trkpt>
      <trkpt lat="37.64472649432718753814697265625" lon="-5.5212305299937725067138671875">
        <ele>39.59999847412109375</ele>
        <time>2022-03-20T10:30:56.000Z</time>
      </trkpt>
      <trkpt lat="37.64477393589913845062255859375" lon="-5.521467737853527069091796875">
        <ele>39.200000762939453125</ele>
        <time>2022-03-20T10:31:03.000Z</time>
      </trkpt>
      <trkpt lat="37.64478667639195919036865234375" lon="-5.5214994214475154876708984375">
        <ele>38.799999237060546875</ele>
        <time>2022-03-20T10:31:04.000Z</time>
      </trkpt>
      <trkpt lat="37.64483965002000331878662109375" lon="-5.52170150913298130035400390625">
        <ele>39.200000762939453125</ele>
        <time>2022-03-20T10:31:11.000Z</time>
      </trkpt>
      <trkpt lat="37.644886672496795654296875" lon="-5.5218799598515033721923828125">
        <ele>39</ele>
        <time>2022-03-20T10:31:17.000Z</time>
      </trkpt>
      <trkpt lat="37.64493369497358798980712890625" lon="-5.5219768546521663665771484375">
        <ele>40</ele>
        <time>2022-03-20T10:31:21.000Z</time>
      </trkpt>
      <trkpt lat="37.64495599083602428436279296875" lon="-5.522098056972026824951171875">
        <ele>40.799999237060546875</ele>
        <time>2022-03-20T10:31:25.000Z</time>
      </trkpt>
      <trkpt lat="37.644995637238025665283203125" lon="-5.522219426929950714111328125">
        <ele>41</ele>
        <time>2022-03-20T10:31:30.000Z</time>
      </trkpt>
      <trkpt lat="37.64500041492283344268798828125" lon="-5.52223091013729572296142578125">
        <ele>41.200000762939453125</ele>
        <time>2022-03-20T10:31:31.000Z</time>
      </trkpt>
      <trkpt lat="37.6449951343238353729248046875" lon="-5.52227315492928028106689453125">
        <ele>42</ele>
        <time>2022-03-20T10:31:35.000Z</time>
      </trkpt>
      <trkpt lat="37.64499463140964508056640625" lon="-5.52228271029889583587646484375">
        <ele>42.59999847412109375</ele>
        <time>2022-03-20T10:31:36.000Z</time>
      </trkpt>
      <trkpt lat="37.6449954695999622344970703125" lon="-5.52229352295398712158203125">
        <ele>43</ele>
        <time>2022-03-20T10:31:37.000Z</time>
      </trkpt>
      <trkpt lat="37.64499337412416934967041015625" lon="-5.52231942303478717803955078125">
        <ele>44</ele>
        <time>2022-03-20T10:31:39.000Z</time>
      </trkpt>
      <trkpt lat="37.6449944637715816497802734375" lon="-5.5223225243389606475830078125">
        <ele>44.59999847412109375</ele>
        <time>2022-03-20T10:31:40.000Z</time>
      </trkpt>
      <trkpt lat="37.64499136246740818023681640625" lon="-5.52233534865081310272216796875">
        <ele>45.799999237060546875</ele>
        <time>2022-03-20T10:31:42.000Z</time>
      </trkpt>
      <trkpt lat="37.64497795142233371734619140625" lon="-5.522340796887874603271484375">
        <ele>47.59999847412109375</ele>
        <time>2022-03-20T10:31:44.000Z</time>
      </trkpt>
      <trkpt lat="37.64496034942567348480224609375" lon="-5.52233886905014514923095703125">
        <ele>48.200000762939453125</ele>
        <time>2022-03-20T10:31:45.000Z</time>
      </trkpt>
      <trkpt lat="37.644937969744205474853515625" lon="-5.5223402939736843109130859375">
        <ele>48.799999237060546875</ele>
        <time>2022-03-20T10:31:46.000Z</time>
      </trkpt>
      <trkpt lat="37.64489647932350635528564453125" lon="-5.52234389819204807281494140625">
        <ele>49</ele>
        <time>2022-03-20T10:31:48.000Z</time>
      </trkpt>
      <trkpt lat="37.64473940245807170867919921875" lon="-5.52232076413929462432861328125">
        <ele>49.200000762939453125</ele>
        <time>2022-03-20T10:31:58.000Z</time>
      </trkpt>
      <trkpt lat="37.64473085291683673858642578125" lon="-5.52232034504413604736328125">
        <ele>49.799999237060546875</ele>
        <time>2022-03-20T10:31:59.000Z</time>
      </trkpt>
      <trkpt lat="37.64472817070782184600830078125" lon="-5.52232176996767520904541015625">
        <ele>50.200000762939453125</ele>
        <time>2022-03-20T10:32:00.000Z</time>
      </trkpt>
      <trkpt lat="37.6447272486984729766845703125" lon="-5.52232260815799236297607421875">
        <ele>50.40000152587890625</ele>
        <time>2022-03-20T10:32:01.000Z</time>
      </trkpt>
      <trkpt lat="37.64472750015556812286376953125" lon="-5.5223231948912143707275390625">
        <ele>50.40000152587890625</ele>
        <time>2022-03-20T10:32:02.000Z</time>
      </trkpt>
      <trkpt lat="37.6447297632694244384765625" lon="-5.52231975831091403961181640625">
        <ele>50.40000152587890625</ele>
        <time>2022-03-20T10:32:03.000Z</time>
      </trkpt>
      <trkpt lat="37.6447309367358684539794921875" lon="-5.52231892012059688568115234375">
        <ele>48.40000152587890625</ele>
        <time>2022-03-20T10:32:11.000Z</time>
      </trkpt>
      <trkpt lat="37.6447309367358684539794921875" lon="-5.52231892012059688568115234375">
        <ele>47.799999237060546875</ele>
        <time>2022-03-20T10:32:14.000Z</time>
      </trkpt>
      <trkpt lat="37.6447309367358684539794921875" lon="-5.52231892012059688568115234375">
        <ele>49.59999847412109375</ele>
        <time>2022-03-20T10:32:18.000Z</time>
      </trkpt>
      <trkpt lat="37.6447309367358684539794921875" lon="-5.52231892012059688568115234375">
        <ele>50.200000762939453125</ele>
        <time>2022-03-20T10:32:24.000Z</time>
      </trkpt>
      <trkpt lat="37.6447309367358684539794921875" lon="-5.52231892012059688568115234375">
        <ele>50.59999847412109375</ele>
        <time>2022-03-20T10:32:27.000Z</time>
      </trkpt>
      <trkpt lat="37.644766308367252349853515625" lon="-5.5223317444324493408203125">
        <ele>49.799999237060546875</ele>
        <time>2022-03-20T10:32:35.000Z</time>
      </trkpt>
      <trkpt lat="37.64479883015155792236328125" lon="-5.52234255708754062652587890625">
        <ele>49.799999237060546875</ele>
        <time>2022-03-20T10:32:36.000Z</time>
      </trkpt>
      <trkpt lat="37.644858174026012420654296875" lon="-5.52235789597034454345703125">
        <ele>49.59999847412109375</ele>
        <time>2022-03-20T10:32:38.000Z</time>
      </trkpt>
      <trkpt lat="37.64497962780296802520751953125" lon="-5.5223993025720119476318359375">
        <ele>49.59999847412109375</ele>
        <time>2022-03-20T10:32:42.000Z</time>
      </trkpt>
      <trkpt lat="37.64502338133752346038818359375" lon="-5.52243190817534923553466796875">
        <ele>49.200000762939453125</ele>
        <time>2022-03-20T10:32:45.000Z</time>
      </trkpt>
      <trkpt lat="37.645026482641696929931640625" lon="-5.52246275357902050018310546875">
        <ele>48.799999237060546875</ele>
        <time>2022-03-20T10:32:47.000Z</time>
      </trkpt>
      <trkpt lat="37.64502472244203090667724609375" lon="-5.52248018793761730194091796875">
        <ele>48.200000762939453125</ele>
        <time>2022-03-20T10:32:48.000Z</time>
      </trkpt>
      <trkpt lat="37.64502254314720630645751953125" lon="-5.52251388318836688995361328125">
        <ele>46.799999237060546875</ele>
        <time>2022-03-20T10:32:50.000Z</time>
      </trkpt>
      <trkpt lat="37.64502413570880889892578125" lon="-5.52255964837968349456787109375">
        <ele>45.40000152587890625</ele>
        <time>2022-03-20T10:32:52.000Z</time>
      </trkpt>
      <trkpt lat="37.6450316794216632843017578125" lon="-5.52261362783610820770263671875">
        <ele>44</ele>
        <time>2022-03-20T10:32:54.000Z</time>
      </trkpt>
      <trkpt lat="37.645041234791278839111328125" lon="-5.5226453952491283416748046875">
        <ele>43.59999847412109375</ele>
        <time>2022-03-20T10:32:55.000Z</time>
      </trkpt>
      <trkpt lat="37.64507166109979152679443359375" lon="-5.522698201239109039306640625">
        <ele>43</ele>
        <time>2022-03-20T10:32:57.000Z</time>
      </trkpt>
      <trkpt lat="37.6450970582664012908935546875" lon="-5.522713623940944671630859375">
        <ele>42.59999847412109375</ele>
        <time>2022-03-20T10:32:58.000Z</time>
      </trkpt>
      <trkpt lat="37.645127065479755401611328125" lon="-5.5227131210267543792724609375">
        <ele>42.59999847412109375</ele>
        <time>2022-03-20T10:32:59.000Z</time>
      </trkpt>
      <trkpt lat="37.6452633552253246307373046875" lon="-5.5226460658013820648193359375">
        <ele>42.59999847412109375</ele>
        <time>2022-03-20T10:33:05.000Z</time>
      </trkpt>
      <trkpt lat="37.6453149877488613128662109375" lon="-5.52265436388552188873291015625">
        <ele>42.59999847412109375</ele>
        <time>2022-03-20T10:33:07.000Z</time>
      </trkpt>
      <trkpt lat="37.64540274627506732940673828125" lon="-5.52266458980739116668701171875">
        <ele>42.40000152587890625</ele>
        <time>2022-03-20T10:33:10.000Z</time>
      </trkpt>
      <trkpt lat="37.64549620449542999267578125" lon="-5.52269996143877506256103515625">
        <ele>42.40000152587890625</ele>
        <time>2022-03-20T10:33:14.000Z</time>
      </trkpt>
      <trkpt lat="37.64553911983966827392578125" lon="-5.5227322317659854888916015625">
        <ele>42.40000152587890625</ele>
        <time>2022-03-20T10:33:16.000Z</time>
      </trkpt>
      <trkpt lat="37.645674906671047210693359375" lon="-5.52277020178735256195068359375">
        <ele>42.799999237060546875</ele>
        <time>2022-03-20T10:33:21.000Z</time>
      </trkpt>
      <trkpt lat="37.64572276733815670013427734375" lon="-5.5227863788604736328125">
        <ele>42.59999847412109375</ele>
        <time>2022-03-20T10:33:23.000Z</time>
      </trkpt>
      <trkpt lat="37.645855285227298736572265625" lon="-5.52282837219536304473876953125">
        <ele>42.59999847412109375</ele>
        <time>2022-03-20T10:33:28.000Z</time>
      </trkpt>
      <trkpt lat="37.645880766212940216064453125" lon="-5.5228411965072154998779296875">
        <ele>42.59999847412109375</ele>
        <time>2022-03-20T10:33:29.000Z</time>
      </trkpt>
      <trkpt lat="37.64604203402996063232421875" lon="-5.52288805134594440460205078125">
        <ele>42.40000152587890625</ele>
        <time>2022-03-20T10:33:35.000Z</time>
      </trkpt>
      <trkpt lat="37.64606474898755550384521484375" lon="-5.52290079183876514434814453125">
        <ele>42.59999847412109375</ele>
        <time>2022-03-20T10:33:36.000Z</time>
      </trkpt>
      <trkpt lat="37.64609567821025848388671875" lon="-5.522952340543270111083984375">
        <ele>42.59999847412109375</ele>
        <time>2022-03-20T10:33:38.000Z</time>
      </trkpt>
      <trkpt lat="37.64611571095883846282958984375" lon="-5.52301813848316669464111328125">
        <ele>42.40000152587890625</ele>
        <time>2022-03-20T10:33:40.000Z</time>
      </trkpt>
      <trkpt lat="37.6461459696292877197265625" lon="-5.52318577654659748077392578125">
        <ele>43</ele>
        <time>2022-03-20T10:33:45.000Z</time>
      </trkpt>
      <trkpt lat="37.646094001829624176025390625" lon="-5.52328753285109996795654296875">
        <ele>43</ele>
        <time>2022-03-20T10:33:49.000Z</time>
      </trkpt>
      <trkpt lat="37.6459313929080963134765625" lon="-5.52342667244374752044677734375">
        <ele>43</ele>
        <time>2022-03-20T10:33:56.000Z</time>
      </trkpt>
      <trkpt lat="37.6459094323217868804931640625" lon="-5.523444525897502899169921875">
        <ele>43.200000762939453125</ele>
        <time>2022-03-20T10:33:57.000Z</time>
      </trkpt>
      <trkpt lat="37.6457505114376544952392578125" lon="-5.52357922308146953582763671875">
        <ele>43.59999847412109375</ele>
        <time>2022-03-20T10:34:04.000Z</time>
      </trkpt>
      <trkpt lat="37.64572746120393276214599609375" lon="-5.5235977470874786376953125">
        <ele>43.40000152587890625</ele>
        <time>2022-03-20T10:34:05.000Z</time>
      </trkpt>
      <trkpt lat="37.64557658694684505462646484375" lon="-5.52373076789081096649169921875">
        <ele>43.200000762939453125</ele>
        <time>2022-03-20T10:34:12.000Z</time>
      </trkpt>
      <trkpt lat="37.6455533690750598907470703125" lon="-5.52375239320099353790283203125">
        <ele>43</ele>
        <time>2022-03-20T10:34:13.000Z</time>
      </trkpt>
      <trkpt lat="37.6454244554042816162109375" lon="-5.52391223609447479248046875">
        <ele>42.40000152587890625</ele>
        <time>2022-03-20T10:34:20.000Z</time>
      </trkpt>
      <trkpt lat="37.64540928415954113006591796875" lon="-5.52403972484171390533447265625">
        <ele>41.799999237060546875</ele>
        <time>2022-03-20T10:34:24.000Z</time>
      </trkpt>
      <trkpt lat="37.64541112817823886871337890625" lon="-5.52407719194889068603515625">
        <ele>41.40000152587890625</ele>
        <time>2022-03-20T10:34:25.000Z</time>
      </trkpt>
      <trkpt lat="37.64544012956321239471435546875" lon="-5.52415858022868633270263671875">
        <ele>41</ele>
        <time>2022-03-20T10:34:28.000Z</time>
      </trkpt>
      <trkpt lat="37.6454775966703891754150390625" lon="-5.5241883359849452972412109375">
        <ele>40.799999237060546875</ele>
        <time>2022-03-20T10:34:30.000Z</time>
      </trkpt>
      <trkpt lat="37.6455376110970973968505859375" lon="-5.52424759604036808013916015625">
        <ele>41.799999237060546875</ele>
        <time>2022-03-20T10:34:33.000Z</time>
      </trkpt>
      <trkpt lat="37.64558136463165283203125" lon="-5.52428866736590862274169921875">
        <ele>42.59999847412109375</ele>
        <time>2022-03-20T10:34:36.000Z</time>
      </trkpt>
      <trkpt lat="37.645597122609615325927734375" lon="-5.52428548224270343780517578125">
        <ele>43</ele>
        <time>2022-03-20T10:34:37.000Z</time>
      </trkpt>
      <trkpt lat="37.64565981924533843994140625" lon="-5.524291098117828369140625">
        <ele>44.200000762939453125</ele>
        <time>2022-03-20T10:34:40.000Z</time>
      </trkpt>
      <trkpt lat="37.6457112841308116912841796875" lon="-5.52430492825806140899658203125">
        <ele>45.40000152587890625</ele>
        <time>2022-03-20T10:34:42.000Z</time>
      </trkpt>
      <trkpt lat="37.64580692164599895477294921875" lon="-5.5243026651442050933837890625">
        <ele>46.59999847412109375</ele>
        <time>2022-03-20T10:34:45.000Z</time>
      </trkpt>
      <trkpt lat="37.645862661302089691162109375" lon="-5.52428229711949825286865234375">
        <ele>46.200000762939453125</ele>
        <time>2022-03-20T10:34:47.000Z</time>
      </trkpt>
      <trkpt lat="37.6459241844713687896728515625" lon="-5.5242547206580638885498046875">
        <ele>45.40000152587890625</ele>
        <time>2022-03-20T10:34:49.000Z</time>
      </trkpt>
      <trkpt lat="37.64606357552111148834228515625" lon="-5.52416277118027210235595703125">
        <ele>44.40000152587890625</ele>
        <time>2022-03-20T10:34:54.000Z</time>
      </trkpt>
      <trkpt lat="37.646193914115428924560546875" lon="-5.5240644514560699462890625">
        <ele>43.40000152587890625</ele>
        <time>2022-03-20T10:34:59.000Z</time>
      </trkpt>
      <trkpt lat="37.6462353207170963287353515625" lon="-5.5240267328917980194091796875">
        <ele>43.200000762939453125</ele>
        <time>2022-03-20T10:35:01.000Z</time>
      </trkpt>
      <trkpt lat="37.64625065959990024566650390625" lon="-5.5240260623395442962646484375">
        <ele>43.200000762939453125</ele>
        <time>2022-03-20T10:35:02.000Z</time>
      </trkpt>
      <trkpt lat="37.64626021496951580047607421875" lon="-5.5240257270634174346923828125">
        <ele>43.40000152587890625</ele>
        <time>2022-03-20T10:35:04.000Z</time>
      </trkpt>
      <trkpt lat="37.6462654955685138702392578125" lon="-5.5240384675562381744384765625">
        <ele>43.59999847412109375</ele>
        <time>2022-03-20T10:35:13.000Z</time>
      </trkpt>
      <trkpt lat="37.64624697156250476837158203125" lon="-5.524062775075435638427734375">
        <ele>43.799999237060546875</ele>
        <time>2022-03-20T10:35:16.000Z</time>
      </trkpt>
      <trkpt lat="37.64621897600591182708740234375" lon="-5.52409320138394832611083984375">
        <ele>43.799999237060546875</ele>
        <time>2022-03-20T10:35:19.000Z</time>
      </trkpt>
      <trkpt lat="37.64618326909840106964111328125" lon="-5.52416126243770122528076171875">
        <ele>43.799999237060546875</ele>
        <time>2022-03-20T10:35:24.000Z</time>
      </trkpt>
      <trkpt lat="37.64610749669373035430908203125" lon="-5.5243211053311824798583984375">
        <ele>43.40000152587890625</ele>
        <time>2022-03-20T10:35:35.000Z</time>
      </trkpt>
      <trkpt lat="37.6460938341915607452392578125" lon="-5.52445613779127597808837890625">
        <ele>43</ele>
        <time>2022-03-20T10:35:43.000Z</time>
      </trkpt>
      <trkpt lat="37.6460995338857173919677734375" lon="-5.52462637424468994140625">
        <ele>43.59999847412109375</ele>
        <time>2022-03-20T10:35:53.000Z</time>
      </trkpt>
      <trkpt lat="37.64611453749239444732666015625" lon="-5.5246438086032867431640625">
        <ele>43.59999847412109375</ele>
        <time>2022-03-20T10:35:55.000Z</time>
      </trkpt>
      <trkpt lat="37.6461271941661834716796875" lon="-5.52463869564235210418701171875">
        <ele>43.59999847412109375</ele>
        <time>2022-03-20T10:35:57.000Z</time>
      </trkpt>
      <trkpt lat="37.64613281004130840301513671875" lon="-5.524591170251369476318359375">
        <ele>42.59999847412109375</ele>
        <time>2022-03-20T10:36:01.000Z</time>
      </trkpt>
      <trkpt lat="37.6461065746843814849853515625" lon="-5.52457876503467559814453125">
        <ele>42</ele>
        <time>2022-03-20T10:36:03.000Z</time>
      </trkpt>
      <trkpt lat="37.64608201570808887481689453125" lon="-5.524551607668399810791015625">
        <ele>41.799999237060546875</ele>
        <time>2022-03-20T10:36:06.000Z</time>
      </trkpt>
      <trkpt lat="37.64609475620090961456298828125" lon="-5.524520762264728546142578125">
        <ele>42.200000762939453125</ele>
        <time>2022-03-20T10:36:08.000Z</time>
      </trkpt>
      <trkpt lat="37.64610766433179378509521484375" lon="-5.52444390021264553070068359375">
        <ele>42.40000152587890625</ele>
        <time>2022-03-20T10:36:12.000Z</time>
      </trkpt>
      <trkpt lat="37.64610682614147663116455078125" lon="-5.52441154606640338897705078125">
        <ele>42.59999847412109375</ele>
        <time>2022-03-20T10:36:14.000Z</time>
      </trkpt>
      <trkpt lat="37.64611889608204364776611328125" lon="-5.52437835372984409332275390625">
        <ele>42.59999847412109375</ele>
        <time>2022-03-20T10:36:16.000Z</time>
      </trkpt>
      <trkpt lat="37.64615376479923725128173828125" lon="-5.52430107258260250091552734375">
        <ele>43</ele>
        <time>2022-03-20T10:36:21.000Z</time>
      </trkpt>
      <trkpt lat="37.64621579088270664215087890625" lon="-5.5241796188056468963623046875">
        <ele>43</ele>
        <time>2022-03-20T10:36:28.000Z</time>
      </trkpt>
      <trkpt lat="37.646238505840301513671875" lon="-5.52414533682167530059814453125">
        <ele>43.40000152587890625</ele>
        <time>2022-03-20T10:36:31.000Z</time>
      </trkpt>
      <trkpt lat="37.64625392854213714599609375" lon="-5.52412211894989013671875">
        <ele>43.59999847412109375</ele>
        <time>2022-03-20T10:36:33.000Z</time>
      </trkpt>
      <trkpt lat="37.64627530239522457122802734375" lon="-5.52409471012651920318603515625">
        <ele>43.200000762939453125</ele>
        <time>2022-03-20T10:36:38.000Z</time>
      </trkpt>
      <trkpt lat="37.64630765654146671295166015625" lon="-5.5241154134273529052734375">
        <ele>42.799999237060546875</ele>
        <time>2022-03-20T10:36:46.000Z</time>
      </trkpt>
      <trkpt lat="37.6462628133594989776611328125" lon="-5.52423669956624507904052734375">
        <ele>43</ele>
        <time>2022-03-20T10:36:51.000Z</time>
      </trkpt>
      <trkpt lat="37.64619533903896808624267578125" lon="-5.52446636371314525604248046875">
        <ele>42.799999237060546875</ele>
        <time>2022-03-20T10:36:58.000Z</time>
      </trkpt>
      <trkpt lat="37.6461803354322910308837890625" lon="-5.52453861571848392486572265625">
        <ele>42.799999237060546875</ele>
        <time>2022-03-20T10:37:00.000Z</time>
      </trkpt>
      <trkpt lat="37.64621545560657978057861328125" lon="-5.52474799565970897674560546875">
        <ele>42.59999847412109375</ele>
        <time>2022-03-20T10:37:06.000Z</time>
      </trkpt>
      <trkpt lat="37.6463283598423004150390625" lon="-5.524950921535491943359375">
        <ele>43</ele>
        <time>2022-03-20T10:37:13.000Z</time>
      </trkpt>
      <trkpt lat="37.6464203931391239166259765625" lon="-5.5251614749431610107421875">
        <ele>43</ele>
        <time>2022-03-20T10:37:20.000Z</time>
      </trkpt>
      <trkpt lat="37.6464431919157505035400390625" lon="-5.5252258479595184326171875">
        <ele>43</ele>
        <time>2022-03-20T10:37:22.000Z</time>
      </trkpt>
      <trkpt lat="37.6465363986790180206298828125" lon="-5.52543849684298038482666015625">
        <ele>43.200000762939453125</ele>
        <time>2022-03-20T10:37:29.000Z</time>
      </trkpt>
      <trkpt lat="37.646548636257648468017578125" lon="-5.5254717729985713958740234375">
        <ele>43</ele>
        <time>2022-03-20T10:37:30.000Z</time>
      </trkpt>
      <trkpt lat="37.646640837192535400390625" lon="-5.52567201666533946990966796875">
        <ele>43</ele>
        <time>2022-03-20T10:37:37.000Z</time>
      </trkpt>
      <trkpt lat="37.64667260460555553436279296875" lon="-5.52572901360690593719482421875">
        <ele>42.799999237060546875</ele>
        <time>2022-03-20T10:37:39.000Z</time>
      </trkpt>
      <trkpt lat="37.64676597900688648223876953125" lon="-5.52577100694179534912109375">
        <ele>42.799999237060546875</ele>
        <time>2022-03-20T10:37:43.000Z</time>
      </trkpt>
      <trkpt lat="37.64682549051940441131591796875" lon="-5.52576287649571895599365234375">
        <ele>42</ele>
        <time>2022-03-20T10:37:48.000Z</time>
      </trkpt>
      <trkpt lat="37.6468311063945293426513671875" lon="-5.5257544107735157012939453125">
        <ele>42</ele>
        <time>2022-03-20T10:37:54.000Z</time>
      </trkpt>
      <trkpt lat="37.64685013331472873687744140625" lon="-5.5257301032543182373046875">
        <ele>42</ele>
        <time>2022-03-20T10:38:00.000Z</time>
      </trkpt>
      <trkpt lat="37.646854408085346221923828125" lon="-5.52570353262126445770263671875">
        <ele>42</ele>
        <time>2022-03-20T10:38:03.000Z</time>
      </trkpt>
      <trkpt lat="37.646864466369152069091796875" lon="-5.5256498046219348907470703125">
        <ele>42</ele>
        <time>2022-03-20T10:38:07.000Z</time>
      </trkpt>
      <trkpt lat="37.64687578193843364715576171875" lon="-5.5256407521665096282958984375">
        <ele>42</ele>
        <time>2022-03-20T10:38:14.000Z</time>
      </trkpt>
      <trkpt lat="37.64688064344227313995361328125" lon="-5.52562692202627658843994140625">
        <ele>42</ele>
        <time>2022-03-20T10:38:24.000Z</time>
      </trkpt>
      <trkpt lat="37.646886594593524932861328125" lon="-5.525626502931118011474609375">
        <ele>42</ele>
        <time>2022-03-20T10:38:27.000Z</time>
      </trkpt>
      <trkpt lat="37.6468854211270809173583984375" lon="-5.52562893368303775787353515625">
        <ele>42</ele>
        <time>2022-03-20T10:38:29.000Z</time>
      </trkpt>
      <trkpt lat="37.646889276802539825439453125" lon="-5.52563966251909732818603515625">
        <ele>42</ele>
        <time>2022-03-20T10:38:33.000Z</time>
      </trkpt>
      <trkpt lat="37.6468881033360958099365234375" lon="-5.525640584528446197509765625">
        <ele>42</ele>
        <time>2022-03-20T10:38:34.000Z</time>
      </trkpt>
      <trkpt lat="37.6468870975077152252197265625" lon="-5.52563999779522418975830078125">
        <ele>42</ele>
        <time>2022-03-20T10:38:39.000Z</time>
      </trkpt>
      <trkpt lat="37.6468991674482822418212890625" lon="-5.5256313644349575042724609375">
        <ele>42</ele>
        <time>2022-03-20T10:38:49.000Z</time>
      </trkpt>
      <trkpt lat="37.64690704643726348876953125" lon="-5.52561141550540924072265625">
        <ele>42</ele>
        <time>2022-03-20T10:38:57.000Z</time>
      </trkpt>
      <trkpt lat="37.64690704643726348876953125" lon="-5.52561141550540924072265625">
        <ele>42</ele>
        <time>2022-03-20T10:39:03.000Z</time>
      </trkpt>
      <trkpt lat="37.64691802673041820526123046875" lon="-5.52561015821993350982666015625">
        <ele>42</ele>
        <time>2022-03-20T10:39:18.000Z</time>
      </trkpt>
      <trkpt lat="37.646922804415225982666015625" lon="-5.52560739219188690185546875">
        <ele>42</ele>
        <time>2022-03-20T10:39:25.000Z</time>
      </trkpt>
      <trkpt lat="37.646922804415225982666015625" lon="-5.5256072245538234710693359375">
        <ele>42</ele>
        <time>2022-03-20T10:39:29.000Z</time>
      </trkpt>
      <trkpt lat="37.64694862067699432373046875" lon="-5.525599010288715362548828125">
        <ele>42</ele>
        <time>2022-03-20T10:39:33.000Z</time>
      </trkpt>
      <trkpt lat="37.64698307029902935028076171875" lon="-5.525584928691387176513671875">
        <ele>42</ele>
        <time>2022-03-20T10:39:43.000Z</time>
      </trkpt>
      <trkpt lat="37.64698809944093227386474609375" lon="-5.52558216266334056854248046875">
        <ele>42</ele>
        <time>2022-03-20T10:39:45.000Z</time>
      </trkpt>
      <trkpt lat="37.64698642306029796600341796875" lon="-5.52559406496584415435791015625">
        <ele>42</ele>
        <time>2022-03-20T10:39:52.000Z</time>
      </trkpt>
      <trkpt lat="37.64698759652674198150634765625" lon="-5.52559398114681243896484375">
        <ele>51</ele>
        <time>2022-03-20T10:39:53.000Z</time>
      </trkpt>
      <trkpt lat="37.64698843471705913543701171875" lon="-5.525594316422939300537109375">
        <ele>50.200000762939453125</ele>
        <time>2022-03-20T10:40:02.000Z</time>
      </trkpt>
      <trkpt lat="37.64698843471705913543701171875" lon="-5.525594316422939300537109375">
        <ele>49.40000152587890625</ele>
        <time>2022-03-20T10:40:04.000Z</time>
      </trkpt>
      <trkpt lat="37.646987177431583404541015625" lon="-5.525592975318431854248046875">
        <ele>49.799999237060546875</ele>
        <time>2022-03-20T10:40:09.000Z</time>
      </trkpt>
      <trkpt lat="37.64698751270771026611328125" lon="-5.525584928691387176513671875">
        <ele>49.200000762939453125</ele>
        <time>2022-03-20T10:40:17.000Z</time>
      </trkpt>
      <trkpt lat="37.6469833217561244964599609375" lon="-5.525574199855327606201171875">
        <ele>49</ele>
        <time>2022-03-20T10:40:20.000Z</time>
      </trkpt>
      <trkpt lat="37.6469833217561244964599609375" lon="-5.525574199855327606201171875">
        <ele>50.59999847412109375</ele>
        <time>2022-03-20T10:40:24.000Z</time>
      </trkpt>
      <trkpt lat="37.6469833217561244964599609375" lon="-5.525574199855327606201171875">
        <ele>51.200000762939453125</ele>
        <time>2022-03-20T10:40:28.000Z</time>
      </trkpt>
      <trkpt lat="37.64698055572807788848876953125" lon="-5.52558082155883312225341796875">
        <ele>49.200000762939453125</ele>
        <time>2022-03-20T10:40:38.000Z</time>
      </trkpt>
      <trkpt lat="37.64705054461956024169921875" lon="-5.52553899586200714111328125">
        <ele>49.40000152587890625</ele>
        <time>2022-03-20T10:40:59.000Z</time>
      </trkpt>
      <trkpt lat="37.6471529714763164520263671875" lon="-5.52545693702995777130126953125">
        <ele>49.40000152587890625</ele>
        <time>2022-03-20T10:41:03.000Z</time>
      </trkpt>
      <trkpt lat="37.6471834816038608551025390625" lon="-5.52543547935783863067626953125">
        <ele>49.200000762939453125</ele>
        <time>2022-03-20T10:41:05.000Z</time>
      </trkpt>
      <trkpt lat="37.64719412662088871002197265625" lon="-5.52542776800692081451416015625">
        <ele>49</ele>
        <time>2022-03-20T10:41:06.000Z</time>
      </trkpt>
      <trkpt lat="37.6472109742462635040283203125" lon="-5.5254208110272884368896484375">
        <ele>48.40000152587890625</ele>
        <time>2022-03-20T10:41:09.000Z</time>
      </trkpt>
      <trkpt lat="37.6472183503210544586181640625" lon="-5.5254141055047512054443359375">
        <ele>48</ele>
        <time>2022-03-20T10:41:11.000Z</time>
      </trkpt>
      <trkpt lat="37.647266797721385955810546875" lon="-5.52538099698722362518310546875">
        <ele>47.799999237060546875</ele>
        <time>2022-03-20T10:41:16.000Z</time>
      </trkpt>
      <trkpt lat="37.64734064228832721710205078125" lon="-5.5253545939922332763671875">
        <ele>47.200000762939453125</ele>
        <time>2022-03-20T10:41:23.000Z</time>
      </trkpt>
      <trkpt lat="37.6473615132272243499755859375" lon="-5.5253490619361400604248046875">
        <ele>47</ele>
        <time>2022-03-20T10:41:25.000Z</time>
      </trkpt>
      <trkpt lat="37.647323124110698699951171875" lon="-5.52532215602695941925048828125">
        <ele>45.799999237060546875</ele>
        <time>2022-03-20T10:41:39.000Z</time>
      </trkpt>
      <trkpt lat="37.64732412993907928466796875" lon="-5.525318719446659088134765625">
        <ele>47.200000762939453125</ele>
        <time>2022-03-20T10:41:40.000Z</time>
      </trkpt>
      <trkpt lat="37.6473330147564411163330078125" lon="-5.5253289453685283660888671875">
        <ele>46.799999237060546875</ele>
        <time>2022-03-20T10:41:41.000Z</time>
      </trkpt>
      <trkpt lat="37.64730091206729412078857421875" lon="-5.52534855902194976806640625">
        <ele>46</ele>
        <time>2022-03-20T10:41:44.000Z</time>
      </trkpt>
      <trkpt lat="37.64729688875377178192138671875" lon="-5.52534721791744232177734375">
        <ele>45.799999237060546875</ele>
        <time>2022-03-20T10:41:45.000Z</time>
      </trkpt>
      <trkpt lat="37.64727928675711154937744140625" lon="-5.5253400094807147979736328125">
        <ele>46</ele>
        <time>2022-03-20T10:41:47.000Z</time>
      </trkpt>
      <trkpt lat="37.647317759692668914794921875" lon="-5.525312013924121856689453125">
        <ele>45</ele>
        <time>2022-03-20T10:41:53.000Z</time>
      </trkpt>
      <trkpt lat="37.6473678834736347198486328125" lon="-5.5252907238900661468505859375">
        <ele>44</ele>
        <time>2022-03-20T10:41:56.000Z</time>
      </trkpt>
      <trkpt lat="37.64738255180418491363525390625" lon="-5.52527907304465770721435546875">
        <ele>44</ele>
        <time>2022-03-20T10:41:57.000Z</time>
      </trkpt>
      <trkpt lat="37.6474066078662872314453125" lon="-5.52527354098856449127197265625">
        <ele>44</ele>
        <time>2022-03-20T10:42:01.000Z</time>
      </trkpt>
      <trkpt lat="37.6474106311798095703125" lon="-5.5252719484269618988037109375">
        <ele>44.200000762939453125</ele>
        <time>2022-03-20T10:42:02.000Z</time>
      </trkpt>
      <trkpt lat="37.64740057289600372314453125" lon="-5.5252685956656932830810546875">
        <ele>43.799999237060546875</ele>
        <time>2022-03-20T10:42:04.000Z</time>
      </trkpt>
      <trkpt lat="37.64740283600986003875732421875" lon="-5.5252541787922382354736328125">
        <ele>44.200000762939453125</ele>
        <time>2022-03-20T10:42:06.000Z</time>
      </trkpt>
      <trkpt lat="37.64741121791303157806396484375" lon="-5.5252525024116039276123046875">
        <ele>43.799999237060546875</ele>
        <time>2022-03-20T10:42:07.000Z</time>
      </trkpt>
      <trkpt lat="37.64742228202521800994873046875" lon="-5.525243617594242095947265625">
        <ele>44</ele>
        <time>2022-03-20T10:42:08.000Z</time>
      </trkpt>
      <trkpt lat="37.64743502251803874969482421875" lon="-5.52524034865200519561767578125">
        <ele>44.40000152587890625</ele>
        <time>2022-03-20T10:42:09.000Z</time>
      </trkpt>
      <trkpt lat="37.6474446617066860198974609375" lon="-5.5252317152917385101318359375">
        <ele>44.59999847412109375</ele>
        <time>2022-03-20T10:42:10.000Z</time>
      </trkpt>
      <trkpt lat="37.6474463380873203277587890625" lon="-5.5252327211201190948486328125">
        <ele>44.59999847412109375</ele>
        <time>2022-03-20T10:42:11.000Z</time>
      </trkpt>
      <trkpt lat="37.6474449969828128814697265625" lon="-5.52523045800626277923583984375">
        <ele>44.59999847412109375</ele>
        <time>2022-03-20T10:42:12.000Z</time>
      </trkpt>
      <trkpt lat="37.64743988402187824249267578125" lon="-5.5252260155975818634033203125">
        <ele>44.59999847412109375</ele>
        <time>2022-03-20T10:42:13.000Z</time>
      </trkpt>
      <trkpt lat="37.64742471277713775634765625" lon="-5.525214783847332000732421875">
        <ele>44.799999237060546875</ele>
        <time>2022-03-20T10:42:16.000Z</time>
      </trkpt>
      <trkpt lat="37.6474248804152011871337890625" lon="-5.5252115987241268157958984375">
        <ele>44.59999847412109375</ele>
        <time>2022-03-20T10:42:18.000Z</time>
      </trkpt>
      <trkpt lat="37.64742831699550151824951171875" lon="-5.525211431086063385009765625">
        <ele>43.200000762939453125</ele>
        <time>2022-03-20T10:42:36.000Z</time>
      </trkpt>
      <trkpt lat="37.64742647297680377960205078125" lon="-5.5252122692763805389404296875">
        <ele>43.200000762939453125</ele>
        <time>2022-03-20T10:42:37.000Z</time>
      </trkpt>
      <trkpt lat="37.6474106311798095703125" lon="-5.525217466056346893310546875">
        <ele>43</ele>
        <time>2022-03-20T10:42:42.000Z</time>
      </trkpt>
      <trkpt lat="37.6474319212138652801513671875" lon="-5.52521369419991970062255859375">
        <ele>43.200000762939453125</ele>
        <time>2022-03-20T10:42:46.000Z</time>
      </trkpt>
      <trkpt lat="37.64743544161319732666015625" lon="-5.5252151191234588623046875">
        <ele>43.200000762939453125</ele>
        <time>2022-03-20T10:42:47.000Z</time>
      </trkpt>
      <trkpt lat="37.6474376209080219268798828125" lon="-5.5252209864556789398193359375">
        <ele>43.799999237060546875</ele>
        <time>2022-03-20T10:42:52.000Z</time>
      </trkpt>
      <trkpt lat="37.6474376209080219268798828125" lon="-5.5252209864556789398193359375">
        <ele>44</ele>
        <time>2022-03-20T10:42:57.000Z</time>
      </trkpt>
      <trkpt lat="37.6474379561841487884521484375" lon="-5.5252209864556789398193359375">
        <ele>44.40000152587890625</ele>
        <time>2022-03-20T10:43:07.000Z</time>
      </trkpt>
      <trkpt lat="37.64750383794307708740234375" lon="-5.525159128010272979736328125">
        <ele>43.40000152587890625</ele>
        <time>2022-03-20T10:43:32.000Z</time>
      </trkpt>
      <trkpt lat="37.64752051793038845062255859375" lon="-5.52514739334583282470703125">
        <ele>43.40000152587890625</ele>
        <time>2022-03-20T10:43:33.000Z</time>
      </trkpt>
      <trkpt lat="37.64755052514374256134033203125" lon="-5.525126270949840545654296875">
        <ele>43.200000762939453125</ele>
        <time>2022-03-20T10:43:35.000Z</time>
      </trkpt>
      <trkpt lat="37.6475670374929904937744140625" lon="-5.525113530457019805908203125">
        <ele>43.200000762939453125</ele>
        <time>2022-03-20T10:43:36.000Z</time>
      </trkpt>
      <trkpt lat="37.6476253755390644073486328125" lon="-5.5250677652657032012939453125">
        <ele>43.40000152587890625</ele>
        <time>2022-03-20T10:43:41.000Z</time>
      </trkpt>
      <trkpt lat="37.6476394571363925933837890625" lon="-5.5250603891909122467041015625">
        <ele>45.40000152587890625</ele>
        <time>2022-03-20T10:43:48.000Z</time>
      </trkpt>
      <trkpt lat="37.6476434804499149322509765625" lon="-5.5250845290720462799072265625">
        <ele>46.40000152587890625</ele>
        <time>2022-03-20T10:43:53.000Z</time>
      </trkpt>
      <trkpt lat="37.6476421393454074859619140625" lon="-5.52508478052914142608642578125">
        <ele>46.59999847412109375</ele>
        <time>2022-03-20T10:43:54.000Z</time>
      </trkpt>
      <trkpt lat="37.6477279700338840484619140625" lon="-5.524993836879730224609375">
        <ele>47.200000762939453125</ele>
        <time>2022-03-20T10:44:02.000Z</time>
      </trkpt>
      <trkpt lat="37.6477246172726154327392578125" lon="-5.52498185075819492340087890625">
        <ele>46.40000152587890625</ele>
        <time>2022-03-20T10:44:08.000Z</time>
      </trkpt>
      <trkpt lat="37.64772436581552028656005859375" lon="-5.5249815993010997772216796875">
        <ele>46.40000152587890625</ele>
        <time>2022-03-20T10:44:09.000Z</time>
      </trkpt>
      <trkpt lat="37.64772486872971057891845703125" lon="-5.52498084492981433868408203125">
        <ele>46.59999847412109375</ele>
        <time>2022-03-20T10:44:12.000Z</time>
      </trkpt>
      <trkpt lat="37.64772838912904262542724609375" lon="-5.5249871313571929931640625">
        <ele>46.799999237060546875</ele>
        <time>2022-03-20T10:44:14.000Z</time>
      </trkpt>
      <trkpt lat="37.64773643575608730316162109375" lon="-5.52499710582196712493896484375">
        <ele>46.59999847412109375</ele>
        <time>2022-03-20T10:44:17.000Z</time>
      </trkpt>
      <trkpt lat="37.64773677103221416473388671875" lon="-5.525000207126140594482421875">
        <ele>46.59999847412109375</ele>
        <time>2022-03-20T10:44:18.000Z</time>
      </trkpt>
      <trkpt lat="37.64774967916309833526611328125" lon="-5.5249976925551891326904296875">
        <ele>46.59999847412109375</ele>
        <time>2022-03-20T10:44:22.000Z</time>
      </trkpt>
      <trkpt lat="37.64776342548429965972900390625" lon="-5.52502845413982868194580078125">
        <ele>46.799999237060546875</ele>
        <time>2022-03-20T10:44:26.000Z</time>
      </trkpt>
      <trkpt lat="37.64776845462620258331298828125" lon="-5.52502577193081378936767578125">
        <ele>47.200000762939453125</ele>
        <time>2022-03-20T10:44:30.000Z</time>
      </trkpt>
      <trkpt lat="37.64776845462620258331298828125" lon="-5.52502577193081378936767578125">
        <ele>47.40000152587890625</ele>
        <time>2022-03-20T10:44:31.000Z</time>
      </trkpt>
      <trkpt lat="37.647759653627872467041015625" lon="-5.52502761594951152801513671875">
        <ele>47.59999847412109375</ele>
        <time>2022-03-20T10:44:32.000Z</time>
      </trkpt>
      <trkpt lat="37.647783793509006500244140625" lon="-5.52498235367238521575927734375">
        <ele>48</ele>
        <time>2022-03-20T10:44:37.000Z</time>
      </trkpt>
      <trkpt lat="37.64780265279114246368408203125" lon="-5.52494379691779613494873046875">
        <ele>48.59999847412109375</ele>
        <time>2022-03-20T10:44:42.000Z</time>
      </trkpt>
      <trkpt lat="37.6478020660579204559326171875" lon="-5.52494346164166927337646484375">
        <ele>48.40000152587890625</ele>
        <time>2022-03-20T10:44:43.000Z</time>
      </trkpt>
      <trkpt lat="37.6478007249534130096435546875" lon="-5.52494262345135211944580078125">
        <ele>48</ele>
        <time>2022-03-20T10:44:44.000Z</time>
      </trkpt>
      <trkpt lat="37.64779980294406414031982421875" lon="-5.5249406956136226654052734375">
        <ele>47.200000762939453125</ele>
        <time>2022-03-20T10:44:46.000Z</time>
      </trkpt>
      <trkpt lat="37.6478034071624279022216796875" lon="-5.52494513802230358123779296875">
        <ele>46.59999847412109375</ele>
        <time>2022-03-20T10:44:52.000Z</time>
      </trkpt>
      <trkpt lat="37.64779896475374698638916015625" lon="-5.52492485381662845611572265625">
        <ele>47</ele>
        <time>2022-03-20T10:45:00.000Z</time>
      </trkpt>
      <trkpt lat="37.6477983780205249786376953125" lon="-5.5249205790460109710693359375">
        <ele>48.799999237060546875</ele>
        <time>2022-03-20T10:45:05.000Z</time>
      </trkpt>
      <trkpt lat="37.6477987132966518402099609375" lon="-5.5249121971428394317626953125">
        <ele>50</ele>
        <time>2022-03-20T10:45:07.000Z</time>
      </trkpt>
      <trkpt lat="37.64780449680984020233154296875" lon="-5.5249108560383319854736328125">
        <ele>49.799999237060546875</ele>
        <time>2022-03-20T10:45:13.000Z</time>
      </trkpt>
      <trkpt lat="37.6478064246475696563720703125" lon="-5.52491395734250545501708984375">
        <ele>50.40000152587890625</ele>
        <time>2022-03-20T10:45:16.000Z</time>
      </trkpt>
      <trkpt lat="37.64781120233237743377685546875" lon="-5.52491647191345691680908203125">
        <ele>49.799999237060546875</ele>
        <time>2022-03-20T10:45:23.000Z</time>
      </trkpt>
      <trkpt lat="37.647824697196483612060546875" lon="-5.52492334507405757904052734375">
        <ele>49.59999847412109375</ele>
        <time>2022-03-20T10:45:24.000Z</time>
      </trkpt>
      <trkpt lat="37.6478738151490688323974609375" lon="-5.52493491210043430328369140625">
        <ele>49.40000152587890625</ele>
        <time>2022-03-20T10:45:28.000Z</time>
      </trkpt>
    </trkseg>
  </trk>
</gpx>
